<?xml version='1.0' encoding='UTF-8'?>
<gpx version="1.1" creator="https://www.komoot.de" xmlns="http://www.topografix.com/GPX/1/1" xmlns:xsi="http://www.w3.org/2001/XMLSchema-instance" xsi:schemaLocation="http://www.topografix.com/GPX/1/1 http://www.topografix.com/GPX/1/1/gpx.xsd">
  <metadata>
    <name>Area Lago Maggiore_Dal porto alla balconata di San Clemente</name>
    <author>
      <link href="https://www.komoot.de">
        <text>komoot</text>
        <type>text/html</type>
      </link>
    </author>
  </metadata>
  <trk>
    <name>Area Lago Maggiore_Dal porto alla balconata di San Clemente</name>
    <trkseg>
      <trkpt lat="45.908460" lon="8.619291">
        <ele>221.662129</ele>
        <time>2022-06-05T15:23:22.741Z</time>
      </trkpt>
      <trkpt lat="45.907593" lon="8.621149">
        <ele>221.402552</ele>
        <time>2022-06-05T15:24:10.574Z</time>
      </trkpt>
      <trkpt lat="45.907519" lon="8.621198">
        <ele>221.370375</ele>
        <time>2022-06-05T15:24:12.270Z</time>
      </trkpt>
      <trkpt lat="45.907403" lon="8.621199">
        <ele>221.324564</ele>
        <time>2022-06-05T15:24:14.810Z</time>
      </trkpt>
      <trkpt lat="45.907134" lon="8.620995">
        <ele>221.204449</ele>
        <time>2022-06-05T15:24:20.973Z</time>
      </trkpt>
      <trkpt lat="45.906538" lon="8.620395">
        <ele>220.604053</ele>
        <time>2022-06-05T15:24:33.099Z</time>
      </trkpt>
      <trkpt lat="45.906310" lon="8.620010">
        <ele>219.213386</ele>
        <time>2022-06-05T15:24:38.510Z</time>
      </trkpt>
      <trkpt lat="45.906162" lon="8.619753">
        <ele>218.295736</ele>
        <time>2022-06-05T15:24:42.051Z</time>
      </trkpt>
      <trkpt lat="45.906105" lon="8.619654">
        <ele>217.942273</ele>
        <time>2022-06-05T15:24:43.421Z</time>
      </trkpt>
      <trkpt lat="45.905953" lon="8.619344">
        <ele>216.899092</ele>
        <time>2022-06-05T15:24:47.580Z</time>
      </trkpt>
      <trkpt lat="45.905909" lon="8.619247">
        <ele>216.580578</ele>
        <time>2022-06-05T15:24:48.863Z</time>
      </trkpt>
      <trkpt lat="45.905862" lon="8.618928">
        <ele>215.683625</ele>
        <time>2022-06-05T15:24:52.672Z</time>
      </trkpt>
      <trkpt lat="45.905843" lon="8.618799">
        <ele>215.320912</ele>
        <time>2022-06-05T15:24:54.275Z</time>
      </trkpt>
      <trkpt lat="45.905814" lon="8.618766">
        <ele>215.174682</ele>
        <time>2022-06-05T15:24:54.921Z</time>
      </trkpt>
      <trkpt lat="45.905741" lon="8.618758">
        <ele>214.885262</ele>
        <time>2022-06-05T15:24:56.200Z</time>
      </trkpt>
      <trkpt lat="45.905680" lon="8.618862">
        <ele>214.511105</ele>
        <time>2022-06-05T15:24:58.115Z</time>
      </trkpt>
      <trkpt lat="45.905647" lon="8.618868">
        <ele>214.379610</ele>
        <time>2022-06-05T15:24:59.033Z</time>
      </trkpt>
      <trkpt lat="45.905515" lon="8.619032">
        <ele>213.923354</ele>
        <time>2022-06-05T15:25:03.903Z</time>
      </trkpt>
      <trkpt lat="45.905241" lon="8.619061">
        <ele>214.510024</ele>
        <time>2022-06-05T15:25:11.985Z</time>
      </trkpt>
      <trkpt lat="45.905209" lon="8.619110">
        <ele>214.609875</ele>
        <time>2022-06-05T15:25:13.170Z</time>
      </trkpt>
      <trkpt lat="45.904951" lon="8.619150">
        <ele>215.163991</ele>
        <time>2022-06-05T15:25:19.895Z</time>
      </trkpt>
      <trkpt lat="45.904916" lon="8.619213">
        <ele>215.283777</ele>
        <time>2022-06-05T15:25:21.423Z</time>
      </trkpt>
      <trkpt lat="45.904819" lon="8.618979">
        <ele>215.688493</ele>
        <time>2022-06-05T15:25:26.572Z</time>
      </trkpt>
      <trkpt lat="45.903993" lon="8.617945">
        <ele>218.390002</ele>
        <time>2022-06-05T15:26:00.246Z</time>
      </trkpt>
      <trkpt lat="45.903760" lon="8.617797">
        <ele>219.504585</ele>
        <time>2022-06-05T15:26:08.605Z</time>
      </trkpt>
      <trkpt lat="45.903737" lon="8.617705">
        <ele>219.802217</ele>
        <time>2022-06-05T15:26:10.828Z</time>
      </trkpt>
      <trkpt lat="45.903600" lon="8.617334">
        <ele>221.080958</ele>
        <time>2022-06-05T15:26:20.412Z</time>
      </trkpt>
      <trkpt lat="45.903345" lon="8.616904">
        <ele>222.801058</ele>
        <time>2022-06-05T15:26:32.926Z</time>
      </trkpt>
      <trkpt lat="45.903108" lon="8.616524">
        <ele>224.354700</ele>
        <time>2022-06-05T15:26:43.715Z</time>
      </trkpt>
      <trkpt lat="45.902776" lon="8.616128">
        <ele>226.381895</ele>
        <time>2022-06-05T15:26:57.218Z</time>
      </trkpt>
      <trkpt lat="45.902568" lon="8.615975">
        <ele>227.610606</ele>
        <time>2022-06-05T15:27:04.880Z</time>
      </trkpt>
      <trkpt lat="45.902013" lon="8.615805">
        <ele>230.594583</ele>
        <time>2022-06-05T15:27:23.283Z</time>
      </trkpt>
      <trkpt lat="45.901850" lon="8.615725">
        <ele>231.500316</ele>
        <time>2022-06-05T15:27:29.000Z</time>
      </trkpt>
      <trkpt lat="45.901778" lon="8.615583">
        <ele>232.143233</ele>
        <time>2022-06-05T15:27:33.039Z</time>
      </trkpt>
      <trkpt lat="45.901745" lon="8.615302">
        <ele>233.186029</ele>
        <time>2022-06-05T15:27:39.976Z</time>
      </trkpt>
      <trkpt lat="45.901735" lon="8.615173">
        <ele>233.660996</ele>
        <time>2022-06-05T15:27:43.082Z</time>
      </trkpt>
      <trkpt lat="45.901744" lon="8.614823">
        <ele>234.942617</ele>
        <time>2022-06-05T15:27:51.986Z</time>
      </trkpt>
      <trkpt lat="45.901651" lon="8.614050">
        <ele>239.022876</ele>
        <time>2022-06-05T15:28:12.827Z</time>
      </trkpt>
      <trkpt lat="45.901645" lon="8.613890">
        <ele>239.862208</ele>
        <time>2022-06-05T15:28:17.256Z</time>
      </trkpt>
      <trkpt lat="45.901690" lon="8.613541">
        <ele>241.721467</ele>
        <time>2022-06-05T15:28:27.269Z</time>
      </trkpt>
      <trkpt lat="45.901845" lon="8.612642">
        <ele>246.573009</ele>
        <time>2022-06-05T15:28:54.531Z</time>
      </trkpt>
      <trkpt lat="45.901864" lon="8.612464">
        <ele>247.516316</ele>
        <time>2022-06-05T15:28:59.630Z</time>
      </trkpt>
      <trkpt lat="45.901838" lon="8.612302">
        <ele>248.387182</ele>
        <time>2022-06-05T15:29:04.429Z</time>
      </trkpt>
      <trkpt lat="45.901892" lon="8.612208">
        <ele>248.991387</ele>
        <time>2022-06-05T15:29:08.487Z</time>
      </trkpt>
      <trkpt lat="45.901635" lon="8.611479">
        <ele>252.964339</ele>
        <time>2022-06-05T15:29:31.441Z</time>
      </trkpt>
      <trkpt lat="45.901625" lon="8.610860">
        <ele>255.974492</ele>
        <time>2022-06-05T15:29:48.744Z</time>
      </trkpt>
      <trkpt lat="45.901661" lon="8.610440">
        <ele>258.031803</ele>
        <time>2022-06-05T15:30:00.065Z</time>
      </trkpt>
      <trkpt lat="45.901702" lon="8.610233">
        <ele>259.078126</ele>
        <time>2022-06-05T15:30:06.061Z</time>
      </trkpt>
      <trkpt lat="45.901504" lon="8.610064">
        <ele>260.686995</ele>
        <time>2022-06-05T15:30:14.018Z</time>
      </trkpt>
      <trkpt lat="45.901431" lon="8.609886">
        <ele>261.353146</ele>
        <time>2022-06-05T15:30:19.332Z</time>
      </trkpt>
      <trkpt lat="45.901336" lon="8.609438">
        <ele>262.295191</ele>
        <time>2022-06-05T15:30:30.432Z</time>
      </trkpt>
      <trkpt lat="45.901272" lon="8.609243">
        <ele>262.728862</ele>
        <time>2022-06-05T15:30:35.393Z</time>
      </trkpt>
      <trkpt lat="45.900970" lon="8.608753">
        <ele>264.045466</ele>
        <time>2022-06-05T15:30:48.823Z</time>
      </trkpt>
      <trkpt lat="45.900762" lon="8.608471">
        <ele>264.872039</ele>
        <time>2022-06-05T15:30:56.662Z</time>
      </trkpt>
      <trkpt lat="45.900479" lon="8.608227">
        <ele>265.825987</ele>
        <time>2022-06-05T15:31:05.102Z</time>
      </trkpt>
      <trkpt lat="45.900172" lon="8.607923">
        <ele>266.308011</ele>
        <time>2022-06-05T15:31:13.973Z</time>
      </trkpt>
      <trkpt lat="45.899932" lon="8.607840">
        <ele>266.301608</ele>
        <time>2022-06-05T15:31:19.452Z</time>
      </trkpt>
      <trkpt lat="45.899833" lon="8.607767">
        <ele>266.298721</ele>
        <time>2022-06-05T15:31:21.832Z</time>
      </trkpt>
      <trkpt lat="45.899810" lon="8.607551">
        <ele>266.294777</ele>
        <time>2022-06-05T15:31:27.189Z</time>
      </trkpt>
      <trkpt lat="45.899743" lon="8.607357">
        <ele>266.290867</ele>
        <time>2022-06-05T15:31:32.182Z</time>
      </trkpt>
      <trkpt lat="45.899484" lon="8.606956">
        <ele>266.280991</ele>
        <time>2022-06-05T15:31:45.306Z</time>
      </trkpt>
      <trkpt lat="45.899073" lon="8.606049">
        <ele>267.273590</ele>
        <time>2022-06-05T15:32:12.451Z</time>
      </trkpt>
      <trkpt lat="45.898933" lon="8.605548">
        <ele>269.160903</ele>
        <time>2022-06-05T15:32:27.093Z</time>
      </trkpt>
      <trkpt lat="45.898782" lon="8.605278">
        <ele>270.371780</ele>
        <time>2022-06-05T15:32:37.117Z</time>
      </trkpt>
      <trkpt lat="45.898752" lon="8.605051">
        <ele>271.179512</ele>
        <time>2022-06-05T15:32:44.112Z</time>
      </trkpt>
      <trkpt lat="45.898811" lon="8.604728">
        <ele>272.346906</ele>
        <time>2022-06-05T15:32:54.697Z</time>
      </trkpt>
      <trkpt lat="45.899047" lon="8.604199">
        <ele>274.543542</ele>
        <time>2022-06-05T15:33:15.959Z</time>
      </trkpt>
      <trkpt lat="45.899077" lon="8.604094">
        <ele>274.940331</ele>
        <time>2022-06-05T15:33:20.011Z</time>
      </trkpt>
      <trkpt lat="45.899162" lon="8.603786">
        <ele>275.688650</ele>
        <time>2022-06-05T15:33:31.786Z</time>
      </trkpt>
      <trkpt lat="45.899320" lon="8.603375">
        <ele>276.485697</ele>
        <time>2022-06-05T15:33:47.612Z</time>
      </trkpt>
      <trkpt lat="45.899444" lon="8.603269">
        <ele>276.837636</ele>
        <time>2022-06-05T15:33:54.065Z</time>
      </trkpt>
      <trkpt lat="45.899564" lon="8.603269">
        <ele>277.130343</ele>
        <time>2022-06-05T15:33:59.202Z</time>
      </trkpt>
      <trkpt lat="45.899662" lon="8.603372">
        <ele>277.426505</ele>
        <time>2022-06-05T15:34:04.084Z</time>
      </trkpt>
      <trkpt lat="45.899732" lon="8.603493">
        <ele>277.693604</ele>
        <time>2022-06-05T15:34:08.277Z</time>
      </trkpt>
      <trkpt lat="45.899866" lon="8.603548">
        <ele>278.033533</ele>
        <time>2022-06-05T15:34:13.483Z</time>
      </trkpt>
      <trkpt lat="45.899981" lon="8.603523">
        <ele>278.317235</ele>
        <time>2022-06-05T15:34:17.731Z</time>
      </trkpt>
      <trkpt lat="45.900246" lon="8.603267">
        <ele>279.096122</ele>
        <time>2022-06-05T15:34:29.118Z</time>
      </trkpt>
      <trkpt lat="45.900407" lon="8.603138">
        <ele>279.545761</ele>
        <time>2022-06-05T15:34:34.855Z</time>
      </trkpt>
      <trkpt lat="45.900645" lon="8.603015">
        <ele>277.948190</ele>
        <time>2022-06-05T15:34:42.080Z</time>
      </trkpt>
      <trkpt lat="45.900685" lon="8.602955">
        <ele>277.429930</ele>
        <time>2022-06-05T15:34:43.663Z</time>
      </trkpt>
      <trkpt lat="45.900712" lon="8.602865">
        <ele>276.818626</ele>
        <time>2022-06-05T15:34:45.517Z</time>
      </trkpt>
      <trkpt lat="45.900708" lon="8.602742">
        <ele>276.050592</ele>
        <time>2022-06-05T15:34:47.850Z</time>
      </trkpt>
      <trkpt lat="45.900534" lon="8.601736">
        <ele>269.584882</ele>
        <time>2022-06-05T15:35:06.706Z</time>
      </trkpt>
      <trkpt lat="45.900381" lon="8.601462">
        <ele>267.393672</ele>
        <time>2022-06-05T15:35:12.891Z</time>
      </trkpt>
      <trkpt lat="45.900181" lon="8.601334">
        <ele>265.431320</ele>
        <time>2022-06-05T15:35:18.409Z</time>
      </trkpt>
      <trkpt lat="45.900066" lon="8.601222">
        <ele>264.186145</ele>
        <time>2022-06-05T15:35:21.841Z</time>
      </trkpt>
      <trkpt lat="45.899973" lon="8.601085">
        <ele>262.856417</ele>
        <time>2022-06-05T15:35:25.175Z</time>
      </trkpt>
      <trkpt lat="45.899846" lon="8.600744">
        <ele>259.873872</ele>
        <time>2022-06-05T15:35:31.861Z</time>
      </trkpt>
      <trkpt lat="45.899639" lon="8.600171">
        <ele>254.895230</ele>
        <time>2022-06-05T15:35:43.031Z</time>
      </trkpt>
      <trkpt lat="45.899624" lon="8.600053">
        <ele>253.970203</ele>
        <time>2022-06-05T15:35:45.120Z</time>
      </trkpt>
      <trkpt lat="45.899521" lon="8.599870">
        <ele>252.155190</ele>
        <time>2022-06-05T15:35:49.156Z</time>
      </trkpt>
      <trkpt lat="45.899454" lon="8.599704">
        <ele>250.675340</ele>
        <time>2022-06-05T15:35:52.494Z</time>
      </trkpt>
      <trkpt lat="45.899293" lon="8.599133">
        <ele>245.924296</ele>
        <time>2022-06-05T15:36:03.502Z</time>
      </trkpt>
      <trkpt lat="45.899283" lon="8.598965">
        <ele>244.624007</ele>
        <time>2022-06-05T15:36:06.681Z</time>
      </trkpt>
      <trkpt lat="45.899422" lon="8.598399">
        <ele>240.953300</ele>
        <time>2022-06-05T15:36:18.268Z</time>
      </trkpt>
      <trkpt lat="45.899502" lon="8.598197">
        <ele>239.632476</ele>
        <time>2022-06-05T15:36:22.663Z</time>
      </trkpt>
      <trkpt lat="45.899501" lon="8.598071">
        <ele>238.916380</ele>
        <time>2022-06-05T15:36:25.035Z</time>
      </trkpt>
      <trkpt lat="45.899464" lon="8.597940">
        <ele>238.112939</ele>
        <time>2022-06-05T15:36:27.691Z</time>
      </trkpt>
      <trkpt lat="45.899344" lon="8.597772">
        <ele>236.744810</ele>
        <time>2022-06-05T15:36:32.093Z</time>
      </trkpt>
      <trkpt lat="45.899315" lon="8.597732">
        <ele>236.416548</ele>
        <time>2022-06-05T15:36:33.112Z</time>
      </trkpt>
      <trkpt lat="45.899086" lon="8.597701">
        <ele>234.538237</ele>
        <time>2022-06-05T15:36:39.163Z</time>
      </trkpt>
      <trkpt lat="45.899001" lon="8.597750">
        <ele>233.790346</ele>
        <time>2022-06-05T15:36:41.517Z</time>
      </trkpt>
      <trkpt lat="45.898884" lon="8.598207">
        <ele>231.023054</ele>
        <time>2022-06-05T15:36:50.522Z</time>
      </trkpt>
      <trkpt lat="45.898801" lon="8.598373">
        <ele>229.861438</ele>
        <time>2022-06-05T15:36:54.285Z</time>
      </trkpt>
      <trkpt lat="45.898662" lon="8.598438">
        <ele>228.658056</ele>
        <time>2022-06-05T15:36:58.309Z</time>
      </trkpt>
      <trkpt lat="45.898561" lon="8.598420">
        <ele>227.798266</ele>
        <time>2022-06-05T15:37:01.010Z</time>
      </trkpt>
      <trkpt lat="45.898546" lon="8.598352">
        <ele>227.378875</ele>
        <time>2022-06-05T15:37:02.301Z</time>
      </trkpt>
      <trkpt lat="45.898504" lon="8.597990">
        <ele>225.221210</ele>
        <time>2022-06-05T15:37:06.428Z</time>
      </trkpt>
      <trkpt lat="45.898452" lon="8.597877">
        <ele>224.424747</ele>
        <time>2022-06-05T15:37:07.889Z</time>
      </trkpt>
      <trkpt lat="45.898368" lon="8.597778">
        <ele>223.506945</ele>
        <time>2022-06-05T15:37:09.651Z</time>
      </trkpt>
      <trkpt lat="45.898291" lon="8.597765">
        <ele>222.851971</ele>
        <time>2022-06-05T15:37:10.960Z</time>
      </trkpt>
      <trkpt lat="45.898078" lon="8.597837">
        <ele>221.003418</ele>
        <time>2022-06-05T15:37:14.468Z</time>
      </trkpt>
      <trkpt lat="45.898041" lon="8.597812">
        <ele>220.658007</ele>
        <time>2022-06-05T15:37:15.100Z</time>
      </trkpt>
      <trkpt lat="45.898203" lon="8.597693">
        <ele>219.120961</ele>
        <time>2022-06-05T15:37:17.852Z</time>
      </trkpt>
      <trkpt lat="45.898236" lon="8.597579">
        <ele>218.395054</ele>
        <time>2022-06-05T15:37:19.071Z</time>
      </trkpt>
      <trkpt lat="45.897979" lon="8.597698">
        <ele>216.113964</ele>
        <time>2022-06-05T15:37:22.974Z</time>
      </trkpt>
      <trkpt lat="45.897938" lon="8.597506">
        <ele>214.933191</ele>
        <time>2022-06-05T15:37:25.041Z</time>
      </trkpt>
      <trkpt lat="45.897897" lon="8.597337">
        <ele>213.880944</ele>
        <time>2022-06-05T15:37:26.916Z</time>
      </trkpt>
      <trkpt lat="45.897853" lon="8.597257">
        <ele>213.406812</ele>
        <time>2022-06-05T15:37:28.012Z</time>
      </trkpt>
      <trkpt lat="45.897501" lon="8.597208">
        <ele>211.212217</ele>
        <time>2022-06-05T15:37:33.073Z</time>
      </trkpt>
      <trkpt lat="45.897440" lon="8.597080">
        <ele>210.542231</ele>
        <time>2022-06-05T15:37:34.672Z</time>
      </trkpt>
      <trkpt lat="45.897458" lon="8.596939">
        <ele>209.923128</ele>
        <time>2022-06-05T15:37:36.132Z</time>
      </trkpt>
      <trkpt lat="45.897498" lon="8.596837">
        <ele>209.417494</ele>
        <time>2022-06-05T15:37:37.370Z</time>
      </trkpt>
      <trkpt lat="45.897708" lon="8.596544">
        <ele>207.601048</ele>
        <time>2022-06-05T15:37:41.936Z</time>
      </trkpt>
      <trkpt lat="45.897736" lon="8.596439">
        <ele>207.115432</ele>
        <time>2022-06-05T15:37:43.142Z</time>
      </trkpt>
      <trkpt lat="45.897707" lon="8.596402">
        <ele>206.874766</ele>
        <time>2022-06-05T15:37:43.785Z</time>
      </trkpt>
      <trkpt lat="45.897604" lon="8.596363">
        <ele>206.213771</ele>
        <time>2022-06-05T15:37:45.572Z</time>
      </trkpt>
      <trkpt lat="45.897454" lon="8.596302">
        <ele>205.246370</ele>
        <time>2022-06-05T15:37:48.070Z</time>
      </trkpt>
      <trkpt lat="45.897305" lon="8.596209">
        <ele>204.238271</ele>
        <time>2022-06-05T15:37:50.754Z</time>
      </trkpt>
      <trkpt lat="45.897394" lon="8.595872">
        <ele>202.681581</ele>
        <time>2022-06-05T15:38:08.219Z</time>
      </trkpt>
      <trkpt lat="45.897485" lon="8.595897">
        <ele>202.705684</ele>
        <time>2022-06-05T15:38:14.622Z</time>
      </trkpt>
      <trkpt lat="45.897531" lon="8.595911">
        <ele>202.773962</ele>
        <time>2022-06-05T15:38:17.940Z</time>
      </trkpt>
      <trkpt lat="45.898067" lon="8.596101">
        <ele>203.575609</ele>
        <time>2022-06-05T15:38:56.315Z</time>
      </trkpt>
      <trkpt lat="45.898037" lon="8.596469">
        <ele>203.950036</ele>
        <time>2022-06-05T15:39:14.229Z</time>
      </trkpt>
      <trkpt lat="45.897764" lon="8.596420">
        <ele>204.349534</ele>
        <time>2022-06-05T15:39:33.401Z</time>
      </trkpt>
      <trkpt lat="45.897736" lon="8.596439">
        <ele>204.394498</ele>
        <time>2022-06-05T15:39:35.541Z</time>
      </trkpt>
      <trkpt lat="45.897707" lon="8.596402">
        <ele>204.450813</ele>
        <time>2022-06-05T15:39:36.756Z</time>
      </trkpt>
      <trkpt lat="45.897604" lon="8.596363">
        <ele>204.605483</ele>
        <time>2022-06-05T15:39:39.737Z</time>
      </trkpt>
      <trkpt lat="45.897454" lon="8.596302">
        <ele>204.831850</ele>
        <time>2022-06-05T15:39:44.493Z</time>
      </trkpt>
      <trkpt lat="45.897323" lon="8.596859">
        <ele>206.050963</ele>
        <time>2022-06-05T15:39:58.256Z</time>
      </trkpt>
      <trkpt lat="45.897258" lon="8.597102">
        <ele>207.054163</ele>
        <time>2022-06-05T15:40:04.230Z</time>
      </trkpt>
      <trkpt lat="45.896850" lon="8.597274">
        <ele>209.408541</ele>
        <time>2022-06-05T15:40:18.755Z</time>
      </trkpt>
      <trkpt lat="45.896776" lon="8.597348">
        <ele>209.907754</ele>
        <time>2022-06-05T15:40:21.797Z</time>
      </trkpt>
      <trkpt lat="45.896742" lon="8.597496">
        <ele>210.508354</ele>
        <time>2022-06-05T15:40:25.644Z</time>
      </trkpt>
      <trkpt lat="45.896757" lon="8.597642">
        <ele>211.077076</ele>
        <time>2022-06-05T15:40:29.258Z</time>
      </trkpt>
      <trkpt lat="45.896990" lon="8.598050">
        <ele>213.110916</ele>
        <time>2022-06-05T15:40:43.010Z</time>
      </trkpt>
      <trkpt lat="45.897028" lon="8.598396">
        <ele>214.460754</ele>
        <time>2022-06-05T15:40:52.239Z</time>
      </trkpt>
      <trkpt lat="45.897061" lon="8.598509">
        <ele>214.932991</ele>
        <time>2022-06-05T15:40:55.395Z</time>
      </trkpt>
      <trkpt lat="45.897046" lon="8.598775">
        <ele>215.908802</ele>
        <time>2022-06-05T15:41:02.115Z</time>
      </trkpt>
      <trkpt lat="45.897341" lon="8.598897">
        <ele>217.496558</ele>
        <time>2022-06-05T15:41:13.049Z</time>
      </trkpt>
      <trkpt lat="45.897313" lon="8.599084">
        <ele>218.185089</ele>
        <time>2022-06-05T15:41:17.630Z</time>
      </trkpt>
      <trkpt lat="45.897329" lon="8.600047">
        <ele>221.652505</ele>
        <time>2022-06-05T15:41:39.856Z</time>
      </trkpt>
      <trkpt lat="45.897335" lon="8.600306">
        <ele>222.585321</ele>
        <time>2022-06-05T15:41:45.760Z</time>
      </trkpt>
      <trkpt lat="45.897298" lon="8.601085">
        <ele>225.169733</ele>
        <time>2022-06-05T15:42:02.937Z</time>
      </trkpt>
      <trkpt lat="45.897266" lon="8.601500">
        <ele>226.307014</ele>
        <time>2022-06-05T15:42:11.772Z</time>
      </trkpt>
      <trkpt lat="45.897097" lon="8.603693">
        <ele>232.290894</ele>
        <time>2022-06-05T15:42:57.980Z</time>
      </trkpt>
      <trkpt lat="45.896955" lon="8.604240">
        <ele>233.830369</ele>
        <time>2022-06-05T15:43:10.153Z</time>
      </trkpt>
      <trkpt lat="45.896955" lon="8.604389">
        <ele>234.223270</ele>
        <time>2022-06-05T15:43:13.201Z</time>
      </trkpt>
      <trkpt lat="45.896953" lon="8.604808">
        <ele>235.328167</ele>
        <time>2022-06-05T15:43:21.888Z</time>
      </trkpt>
      <trkpt lat="45.896893" lon="8.604814">
        <ele>235.556054</ele>
        <time>2022-06-05T15:43:24.249Z</time>
      </trkpt>
      <trkpt lat="45.896471" lon="8.605114">
        <ele>237.339985</ele>
        <time>2022-06-05T15:43:42.787Z</time>
      </trkpt>
      <trkpt lat="45.896318" lon="8.605149">
        <ele>237.926995</ele>
        <time>2022-06-05T15:43:48.922Z</time>
      </trkpt>
      <trkpt lat="45.896166" lon="8.605272">
        <ele>238.628349</ele>
        <time>2022-06-05T15:43:55.872Z</time>
      </trkpt>
      <trkpt lat="45.896098" lon="8.605326">
        <ele>238.967203</ele>
        <time>2022-06-05T15:43:58.980Z</time>
      </trkpt>
      <trkpt lat="45.895982" lon="8.605361">
        <ele>239.484157</ele>
        <time>2022-06-05T15:44:03.705Z</time>
      </trkpt>
      <trkpt lat="45.895892" lon="8.605347">
        <ele>239.878974</ele>
        <time>2022-06-05T15:44:07.305Z</time>
      </trkpt>
      <trkpt lat="45.895795" lon="8.605556">
        <ele>240.641487</ele>
        <time>2022-06-05T15:44:14.314Z</time>
      </trkpt>
      <trkpt lat="45.895433" lon="8.605787">
        <ele>242.369002</ele>
        <time>2022-06-05T15:44:30.342Z</time>
      </trkpt>
      <trkpt lat="45.895359" lon="8.605949">
        <ele>242.957188</ele>
        <time>2022-06-05T15:44:35.812Z</time>
      </trkpt>
      <trkpt lat="45.895254" lon="8.606021">
        <ele>243.464609</ele>
        <time>2022-06-05T15:44:40.546Z</time>
      </trkpt>
      <trkpt lat="45.895131" lon="8.606056">
        <ele>244.011477</ele>
        <time>2022-06-05T15:44:45.624Z</time>
      </trkpt>
      <trkpt lat="45.894937" lon="8.606055">
        <ele>244.857589</ele>
        <time>2022-06-05T15:44:53.451Z</time>
      </trkpt>
      <trkpt lat="45.894826" lon="8.605998">
        <ele>245.371691</ele>
        <time>2022-06-05T15:44:58.242Z</time>
      </trkpt>
      <trkpt lat="45.894674" lon="8.606003">
        <ele>246.034794</ele>
        <time>2022-06-05T15:45:04.448Z</time>
      </trkpt>
      <trkpt lat="45.894601" lon="8.606031">
        <ele>246.367623</ele>
        <time>2022-06-05T15:45:07.522Z</time>
      </trkpt>
      <trkpt lat="45.894477" lon="8.606138">
        <ele>247.008926</ele>
        <time>2022-06-05T15:45:13.539Z</time>
      </trkpt>
      <trkpt lat="45.894354" lon="8.606160">
        <ele>247.558477</ele>
        <time>2022-06-05T15:45:18.710Z</time>
      </trkpt>
      <trkpt lat="45.894175" lon="8.606053">
        <ele>248.418048</ele>
        <time>2022-06-05T15:45:26.811Z</time>
      </trkpt>
      <trkpt lat="45.894115" lon="8.605951">
        <ele>248.830157</ele>
        <time>2022-06-05T15:45:30.678Z</time>
      </trkpt>
      <trkpt lat="45.894070" lon="8.605930">
        <ele>249.039932</ele>
        <time>2022-06-05T15:45:32.638Z</time>
      </trkpt>
      <trkpt lat="45.893895" lon="8.606080">
        <ele>249.943401</ele>
        <time>2022-06-05T15:45:41.111Z</time>
      </trkpt>
      <trkpt lat="45.893615" lon="8.606101">
        <ele>251.186519</ele>
        <time>2022-06-05T15:45:52.644Z</time>
      </trkpt>
      <trkpt lat="45.893469" lon="8.605878">
        <ele>252.131267</ele>
        <time>2022-06-05T15:46:01.299Z</time>
      </trkpt>
      <trkpt lat="45.893398" lon="8.605822">
        <ele>252.490370</ele>
        <time>2022-06-05T15:46:04.562Z</time>
      </trkpt>
      <trkpt lat="45.893320" lon="8.605865">
        <ele>252.860779</ele>
        <time>2022-06-05T15:46:07.907Z</time>
      </trkpt>
      <trkpt lat="45.893181" lon="8.605828">
        <ele>253.487547</ele>
        <time>2022-06-05T15:46:13.507Z</time>
      </trkpt>
      <trkpt lat="45.893021" lon="8.605913">
        <ele>254.197583</ele>
        <time>2022-06-05T15:46:20.240Z</time>
      </trkpt>
      <trkpt lat="45.892804" lon="8.605860">
        <ele>254.739295</ele>
        <time>2022-06-05T15:46:28.788Z</time>
      </trkpt>
      <trkpt lat="45.892521" lon="8.605989">
        <ele>255.469987</ele>
        <time>2022-06-05T15:46:40.171Z</time>
      </trkpt>
      <trkpt lat="45.892341" lon="8.606015">
        <ele>255.915212</ele>
        <time>2022-06-05T15:46:46.974Z</time>
      </trkpt>
      <trkpt lat="45.892177" lon="8.605962">
        <ele>256.328911</ele>
        <time>2022-06-05T15:46:53.297Z</time>
      </trkpt>
      <trkpt lat="45.892028" lon="8.605822">
        <ele>256.767062</ele>
        <time>2022-06-05T15:46:59.946Z</time>
      </trkpt>
      <trkpt lat="45.891882" lon="8.605752">
        <ele>257.145856</ele>
        <time>2022-06-05T15:47:05.638Z</time>
      </trkpt>
      <trkpt lat="45.891680" lon="8.605602">
        <ele>257.705464</ele>
        <time>2022-06-05T15:47:14.015Z</time>
      </trkpt>
      <trkpt lat="45.891524" lon="8.605543">
        <ele>258.102469</ele>
        <time>2022-06-05T15:47:19.966Z</time>
      </trkpt>
      <trkpt lat="45.891386" lon="8.605597">
        <ele>258.454467</ele>
        <time>2022-06-05T15:47:25.198Z</time>
      </trkpt>
      <trkpt lat="45.891277" lon="8.605592">
        <ele>258.610428</ele>
        <time>2022-06-05T15:47:29.151Z</time>
      </trkpt>
      <trkpt lat="45.891132" lon="8.605677">
        <ele>258.718874</ele>
        <time>2022-06-05T15:47:34.876Z</time>
      </trkpt>
      <trkpt lat="45.891002" lon="8.605685">
        <ele>258.808980</ele>
        <time>2022-06-05T15:47:39.598Z</time>
      </trkpt>
      <trkpt lat="45.890783" lon="8.605611">
        <ele>258.964773</ele>
        <time>2022-06-05T15:47:47.756Z</time>
      </trkpt>
      <trkpt lat="45.890548" lon="8.605781">
        <ele>259.146971</ele>
        <time>2022-06-05T15:47:57.251Z</time>
      </trkpt>
      <trkpt lat="45.890073" lon="8.605742">
        <ele>259.476439</ele>
        <time>2022-06-05T15:48:14.354Z</time>
      </trkpt>
      <trkpt lat="45.889701" lon="8.605643">
        <ele>259.738427</ele>
        <time>2022-06-05T15:48:27.987Z</time>
      </trkpt>
      <trkpt lat="45.890015" lon="8.606048">
        <ele>260.263050</ele>
        <time>2022-06-05T15:48:43.227Z</time>
      </trkpt>
      <trkpt lat="45.890169" lon="8.606152">
        <ele>260.506114</ele>
        <time>2022-06-05T15:48:49.362Z</time>
      </trkpt>
      <trkpt lat="45.890344" lon="8.606337">
        <ele>260.816462</ele>
        <time>2022-06-05T15:48:57.271Z</time>
      </trkpt>
      <trkpt lat="45.890818" lon="8.606262">
        <ele>261.497620</ele>
        <time>2022-06-05T15:49:14.721Z</time>
      </trkpt>
      <trkpt lat="45.891498" lon="8.606428">
        <ele>262.653039</ele>
        <time>2022-06-05T15:49:40.313Z</time>
      </trkpt>
      <trkpt lat="45.891595" lon="8.606514">
        <ele>263.088234</ele>
        <time>2022-06-05T15:49:44.601Z</time>
      </trkpt>
      <trkpt lat="45.891624" lon="8.606638">
        <ele>263.435865</ele>
        <time>2022-06-05T15:49:48.030Z</time>
      </trkpt>
      <trkpt lat="45.891531" lon="8.607024">
        <ele>264.521365</ele>
        <time>2022-06-05T15:49:58.853Z</time>
      </trkpt>
      <trkpt lat="45.891901" lon="8.607260">
        <ele>266.067017</ele>
        <time>2022-06-05T15:50:14.606Z</time>
      </trkpt>
      <trkpt lat="45.892110" lon="8.607432">
        <ele>266.986635</ele>
        <time>2022-06-05T15:50:24.253Z</time>
      </trkpt>
      <trkpt lat="45.891867" lon="8.608177">
        <ele>269.173048</ele>
        <time>2022-06-05T15:50:47.863Z</time>
      </trkpt>
      <trkpt lat="45.891754" lon="8.608430">
        <ele>270.602083</ele>
        <time>2022-06-05T15:50:56.734Z</time>
      </trkpt>
      <trkpt lat="45.892110" lon="8.608650">
        <ele>273.370709</ele>
        <time>2022-06-05T15:51:13.735Z</time>
      </trkpt>
      <trkpt lat="45.892123" lon="8.608742">
        <ele>273.837507</ele>
        <time>2022-06-05T15:51:16.724Z</time>
      </trkpt>
      <trkpt lat="45.892076" lon="8.609031">
        <ele>275.313255</ele>
        <time>2022-06-05T15:51:26.265Z</time>
      </trkpt>
      <trkpt lat="45.892007" lon="8.609458">
        <ele>277.492969</ele>
        <time>2022-06-05T15:51:40.941Z</time>
      </trkpt>
      <trkpt lat="45.892021" lon="8.609683">
        <ele>278.616235</ele>
        <time>2022-06-05T15:51:48.884Z</time>
      </trkpt>
      <trkpt lat="45.891983" lon="8.610231">
        <ele>281.354637</ele>
        <time>2022-06-05T15:52:08.816Z</time>
      </trkpt>
      <trkpt lat="45.891995" lon="8.610421">
        <ele>282.331567</ele>
        <time>2022-06-05T15:52:15.875Z</time>
      </trkpt>
      <trkpt lat="45.892054" lon="8.610771">
        <ele>284.369427</ele>
        <time>2022-06-05T15:52:29.698Z</time>
      </trkpt>
      <trkpt lat="45.892136" lon="8.610870">
        <ele>285.240249</ele>
        <time>2022-06-05T15:52:35.336Z</time>
      </trkpt>
      <trkpt lat="45.892239" lon="8.610947">
        <ele>286.184256</ele>
        <time>2022-06-05T15:52:41.801Z</time>
      </trkpt>
      <trkpt lat="45.892471" lon="8.610978">
        <ele>288.078646</ele>
        <time>2022-06-05T15:52:54.297Z</time>
      </trkpt>
      <trkpt lat="45.892519" lon="8.611615">
        <ele>291.704368</ele>
        <time>2022-06-05T15:53:18.475Z</time>
      </trkpt>
      <trkpt lat="45.892612" lon="8.612265">
        <ele>295.459500</ele>
        <time>2022-06-05T15:53:41.401Z</time>
      </trkpt>
      <trkpt lat="45.892198" lon="8.612972">
        <ele>296.993677</ele>
        <time>2022-06-05T15:54:02.473Z</time>
      </trkpt>
      <trkpt lat="45.892010" lon="8.613421">
        <ele>297.196744</ele>
        <time>2022-06-05T15:54:12.153Z</time>
      </trkpt>
      <trkpt lat="45.891745" lon="8.613233">
        <ele>297.361306</ele>
        <time>2022-06-05T15:54:18.643Z</time>
      </trkpt>
      <trkpt lat="45.891831" lon="8.612937">
        <ele>297.485613</ele>
        <time>2022-06-05T15:54:23.019Z</time>
      </trkpt>
      <trkpt lat="45.891498" lon="8.612716">
        <ele>297.689855</ele>
        <time>2022-06-05T15:54:29.772Z</time>
      </trkpt>
      <trkpt lat="45.891429" lon="8.612645">
        <ele>297.610050</ele>
        <time>2022-06-05T15:54:32.332Z</time>
      </trkpt>
      <trkpt lat="45.891185" lon="8.612581">
        <ele>296.451709</ele>
        <time>2022-06-05T15:54:39.770Z</time>
      </trkpt>
      <trkpt lat="45.890542" lon="8.612152">
        <ele>293.140841</ele>
        <time>2022-06-05T15:55:00.142Z</time>
      </trkpt>
      <trkpt lat="45.890227" lon="8.612052">
        <ele>291.634272</ele>
        <time>2022-06-05T15:55:09.349Z</time>
      </trkpt>
      <trkpt lat="45.889773" lon="8.612044">
        <ele>289.513882</ele>
        <time>2022-06-05T15:55:22.462Z</time>
      </trkpt>
      <trkpt lat="45.889706" lon="8.611905">
        <ele>289.010569</ele>
        <time>2022-06-05T15:55:25.960Z</time>
      </trkpt>
      <trkpt lat="45.889420" lon="8.611776">
        <ele>287.790908</ele>
        <time>2022-06-05T15:55:34.850Z</time>
      </trkpt>
      <trkpt lat="45.889323" lon="8.611642">
        <ele>287.243388</ele>
        <time>2022-06-05T15:55:38.775Z</time>
      </trkpt>
      <trkpt lat="45.888974" lon="8.611433">
        <ele>285.704974</ele>
        <time>2022-06-05T15:55:50.064Z</time>
      </trkpt>
      <trkpt lat="45.888595" lon="8.610995">
        <ele>283.725926</ele>
        <time>2022-06-05T15:56:04.717Z</time>
      </trkpt>
      <trkpt lat="45.888181" lon="8.610748">
        <ele>281.933229</ele>
        <time>2022-06-05T15:56:18.309Z</time>
      </trkpt>
      <trkpt lat="45.888299" lon="8.610463">
        <ele>281.277524</ele>
        <time>2022-06-05T15:56:25.218Z</time>
      </trkpt>
      <trkpt lat="45.888124" lon="8.610249">
        <ele>280.624683</ele>
        <time>2022-06-05T15:56:32.334Z</time>
      </trkpt>
      <trkpt lat="45.887612" lon="8.609831">
        <ele>278.951763</ele>
        <time>2022-06-05T15:56:50.843Z</time>
      </trkpt>
      <trkpt lat="45.887437" lon="8.609461">
        <ele>278.067216</ele>
        <time>2022-06-05T15:57:00.745Z</time>
      </trkpt>
      <trkpt lat="45.887350" lon="8.609362">
        <ele>277.751932</ele>
        <time>2022-06-05T15:57:04.361Z</time>
      </trkpt>
      <trkpt lat="45.887093" lon="8.609173">
        <ele>276.931758</ele>
        <time>2022-06-05T15:57:13.636Z</time>
      </trkpt>
      <trkpt lat="45.886820" lon="8.609024">
        <ele>276.691636</ele>
        <time>2022-06-05T15:57:23.289Z</time>
      </trkpt>
      <trkpt lat="45.886225" lon="8.608371">
        <ele>276.144145</ele>
        <time>2022-06-05T15:57:48.920Z</time>
      </trkpt>
      <trkpt lat="45.886212" lon="8.608356">
        <ele>276.131952</ele>
        <time>2022-06-05T15:57:49.529Z</time>
      </trkpt>
      <trkpt lat="45.885526" lon="8.608222">
        <ele>275.625731</ele>
        <time>2022-06-05T15:58:14.286Z</time>
      </trkpt>
      <trkpt lat="45.885344" lon="8.608288">
        <ele>275.801389</ele>
        <time>2022-06-05T15:58:21.080Z</time>
      </trkpt>
      <trkpt lat="45.885205" lon="8.608592">
        <ele>276.243813</ele>
        <time>2022-06-05T15:58:30.366Z</time>
      </trkpt>
      <trkpt lat="45.885208" lon="8.608700">
        <ele>276.375289</ele>
        <time>2022-06-05T15:58:33.105Z</time>
      </trkpt>
      <trkpt lat="45.885277" lon="8.608920">
        <ele>276.668805</ele>
        <time>2022-06-05T15:58:39.322Z</time>
      </trkpt>
      <trkpt lat="45.885260" lon="8.608998">
        <ele>276.768226</ele>
        <time>2022-06-05T15:58:41.434Z</time>
      </trkpt>
      <trkpt lat="45.885252" lon="8.609143">
        <ele>276.945157</ele>
        <time>2022-06-05T15:58:45.157Z</time>
      </trkpt>
      <trkpt lat="45.885267" lon="8.609251">
        <ele>277.079117</ele>
        <time>2022-06-05T15:58:48.021Z</time>
      </trkpt>
      <trkpt lat="45.885263" lon="8.610432">
        <ele>278.515698</ele>
        <time>2022-06-05T15:59:18.861Z</time>
      </trkpt>
      <trkpt lat="45.885171" lon="8.611608">
        <ele>278.339981</ele>
        <time>2022-06-05T15:59:49.033Z</time>
      </trkpt>
      <trkpt lat="45.885165" lon="8.611728">
        <ele>278.294362</ele>
        <time>2022-06-05T15:59:52.034Z</time>
      </trkpt>
      <trkpt lat="45.884911" lon="8.612085">
        <ele>278.100794</ele>
        <time>2022-06-05T16:00:04.717Z</time>
      </trkpt>
      <trkpt lat="45.884801" lon="8.612005">
        <ele>278.033633</ele>
        <time>2022-06-05T16:00:08.840Z</time>
      </trkpt>
      <trkpt lat="45.884742" lon="8.611918">
        <ele>277.987576</ele>
        <time>2022-06-05T16:00:11.649Z</time>
      </trkpt>
      <trkpt lat="45.884594" lon="8.611752">
        <ele>277.885294</ele>
        <time>2022-06-05T16:00:15.271Z</time>
      </trkpt>
      <trkpt lat="45.884400" lon="8.611655">
        <ele>277.773399</ele>
        <time>2022-06-05T16:00:19.086Z</time>
      </trkpt>
      <trkpt lat="45.884273" lon="8.611623">
        <ele>277.435474</ele>
        <time>2022-06-05T16:00:21.450Z</time>
      </trkpt>
      <trkpt lat="45.884010" lon="8.611717">
        <ele>276.321501</ele>
        <time>2022-06-05T16:00:26.254Z</time>
      </trkpt>
      <trkpt lat="45.883497" lon="8.611346">
        <ele>273.960772</ele>
        <time>2022-06-05T16:00:36.163Z</time>
      </trkpt>
      <trkpt lat="45.883391" lon="8.611216">
        <ele>273.387893</ele>
        <time>2022-06-05T16:00:38.548Z</time>
      </trkpt>
      <trkpt lat="45.882837" lon="8.610909">
        <ele>270.947214</ele>
        <time>2022-06-05T16:00:48.902Z</time>
      </trkpt>
      <trkpt lat="45.882611" lon="8.610883">
        <ele>270.092573</ele>
        <time>2022-06-05T16:00:52.864Z</time>
      </trkpt>
      <trkpt lat="45.882425" lon="8.610644">
        <ele>269.302898</ele>
        <time>2022-06-05T16:00:57.221Z</time>
      </trkpt>
      <trkpt lat="45.881866" lon="8.611359">
        <ele>266.934437</ele>
        <time>2022-06-05T16:01:10.802Z</time>
      </trkpt>
      <trkpt lat="45.881557" lon="8.611412">
        <ele>265.949706</ele>
        <time>2022-06-05T16:01:16.663Z</time>
      </trkpt>
      <trkpt lat="45.881093" lon="8.611520">
        <ele>264.553488</ele>
        <time>2022-06-05T16:01:25.856Z</time>
      </trkpt>
      <trkpt lat="45.880969" lon="8.611678">
        <ele>264.271542</ele>
        <time>2022-06-05T16:01:29.212Z</time>
      </trkpt>
      <trkpt lat="45.880874" lon="8.611962">
        <ele>263.898433</ele>
        <time>2022-06-05T16:01:33.623Z</time>
      </trkpt>
      <trkpt lat="45.880258" lon="8.612697">
        <ele>262.536289</ele>
        <time>2022-06-05T16:01:49.840Z</time>
      </trkpt>
      <trkpt lat="45.880206" lon="8.612884">
        <ele>262.297837</ele>
        <time>2022-06-05T16:01:52.781Z</time>
      </trkpt>
      <trkpt lat="45.880210" lon="8.613121">
        <ele>262.017107</ele>
        <time>2022-06-05T16:01:56.187Z</time>
      </trkpt>
      <trkpt lat="45.880299" lon="8.613534">
        <ele>261.454673</ele>
        <time>2022-06-05T16:02:02.488Z</time>
      </trkpt>
      <trkpt lat="45.880232" lon="8.613684">
        <ele>261.131318</ele>
        <time>2022-06-05T16:02:05.065Z</time>
      </trkpt>
      <trkpt lat="45.879552" lon="8.614521">
        <ele>258.797430</ele>
        <time>2022-06-05T16:02:22.939Z</time>
      </trkpt>
      <trkpt lat="45.879051" lon="8.615695">
        <ele>255.762670</ele>
        <time>2022-06-05T16:02:40.132Z</time>
      </trkpt>
      <trkpt lat="45.878686" lon="8.616189">
        <ele>253.312733</ele>
        <time>2022-06-05T16:02:48.636Z</time>
      </trkpt>
      <trkpt lat="45.878540" lon="8.616639">
        <ele>251.624242</ele>
        <time>2022-06-05T16:02:54.469Z</time>
      </trkpt>
      <trkpt lat="45.878387" lon="8.617278">
        <ele>249.326050</ele>
        <time>2022-06-05T16:03:02.402Z</time>
      </trkpt>
      <trkpt lat="45.878349" lon="8.617854">
        <ele>247.561632</ele>
        <time>2022-06-05T16:03:09.205Z</time>
      </trkpt>
      <trkpt lat="45.877823" lon="8.617975">
        <ele>245.648972</ele>
        <time>2022-06-05T16:03:18.358Z</time>
      </trkpt>
      <trkpt lat="45.877247" lon="8.617843">
        <ele>243.554698</ele>
        <time>2022-06-05T16:03:28.872Z</time>
      </trkpt>
      <trkpt lat="45.877131" lon="8.617902">
        <ele>243.112861</ele>
        <time>2022-06-05T16:03:31.225Z</time>
      </trkpt>
      <trkpt lat="45.877054" lon="8.618009">
        <ele>242.728189</ele>
        <time>2022-06-05T16:03:33.295Z</time>
      </trkpt>
      <trkpt lat="45.877044" lon="8.618192">
        <ele>242.269338</ele>
        <time>2022-06-05T16:03:35.786Z</time>
      </trkpt>
      <trkpt lat="45.877005" lon="8.618421">
        <ele>241.680029</ele>
        <time>2022-06-05T16:03:39.126Z</time>
      </trkpt>
      <trkpt lat="45.876916" lon="8.618743">
        <ele>241.419339</ele>
        <time>2022-06-05T16:03:44.035Z</time>
      </trkpt>
      <trkpt lat="45.876766" lon="8.619086">
        <ele>241.124909</ele>
        <time>2022-06-05T16:03:49.830Z</time>
      </trkpt>
      <trkpt lat="45.876624" lon="8.619279">
        <ele>240.920796</ele>
        <time>2022-06-05T16:03:53.881Z</time>
      </trkpt>
      <trkpt lat="45.876542" lon="8.619526">
        <ele>240.721886</ele>
        <time>2022-06-05T16:03:57.837Z</time>
      </trkpt>
      <trkpt lat="45.876222" lon="8.620109">
        <ele>240.182242</ele>
        <time>2022-06-05T16:04:09.155Z</time>
      </trkpt>
      <trkpt lat="45.876187" lon="8.620175">
        <ele>240.121935</ele>
        <time>2022-06-05T16:04:10.446Z</time>
      </trkpt>
      <trkpt lat="45.875709" lon="8.621134">
        <ele>239.796920</ele>
        <time>2022-06-05T16:04:29.183Z</time>
      </trkpt>
      <trkpt lat="45.875970" lon="8.621252">
        <ele>239.800896</ele>
        <time>2022-06-05T16:04:35.208Z</time>
      </trkpt>
      <trkpt lat="45.876361" lon="8.621424">
        <ele>239.806838</ele>
        <time>2022-06-05T16:04:44.111Z</time>
      </trkpt>
      <trkpt lat="45.876447" lon="8.621462">
        <ele>239.808146</ele>
        <time>2022-06-05T16:04:46.102Z</time>
      </trkpt>
      <trkpt lat="45.876618" lon="8.621526">
        <ele>239.810714</ele>
        <time>2022-06-05T16:04:50.008Z</time>
      </trkpt>
      <trkpt lat="45.876826" lon="8.621770">
        <ele>239.814616</ele>
        <time>2022-06-05T16:04:56.018Z</time>
      </trkpt>
      <trkpt lat="45.876855" lon="8.621936">
        <ele>239.820088</ele>
        <time>2022-06-05T16:04:58.729Z</time>
      </trkpt>
      <trkpt lat="45.876840" lon="8.622729">
        <ele>239.878329</ele>
        <time>2022-06-05T16:05:11.377Z</time>
      </trkpt>
      <trkpt lat="45.876831" lon="8.622995">
        <ele>239.897880</ele>
        <time>2022-06-05T16:05:15.529Z</time>
      </trkpt>
      <trkpt lat="45.876756" lon="8.623317">
        <ele>239.922808</ele>
        <time>2022-06-05T16:05:20.744Z</time>
      </trkpt>
      <trkpt lat="45.876584" lon="8.624419">
        <ele>240.006528</ele>
        <time>2022-06-05T16:05:37.878Z</time>
      </trkpt>
      <trkpt lat="45.876574" lon="8.624586">
        <ele>240.051822</ele>
        <time>2022-06-05T16:05:40.418Z</time>
      </trkpt>
      <trkpt lat="45.876504" lon="8.625006">
        <ele>240.168524</ele>
        <time>2022-06-05T16:05:46.980Z</time>
      </trkpt>
      <trkpt lat="45.876369" lon="8.626688">
        <ele>240.626054</ele>
        <time>2022-06-05T16:06:13.022Z</time>
      </trkpt>
      <trkpt lat="45.876373" lon="8.626948">
        <ele>240.696330</ele>
        <time>2022-06-05T16:06:17.396Z</time>
      </trkpt>
      <trkpt lat="45.876564" lon="8.627514">
        <ele>241.898182</ele>
        <time>2022-06-05T16:06:29.074Z</time>
      </trkpt>
      <trkpt lat="45.876840" lon="8.628095">
        <ele>243.293299</ele>
        <time>2022-06-05T16:06:43.348Z</time>
      </trkpt>
      <trkpt lat="45.877035" lon="8.628675">
        <ele>244.570839</ele>
        <time>2022-06-05T16:06:56.500Z</time>
      </trkpt>
      <trkpt lat="45.877453" lon="8.629754">
        <ele>246.870699</ele>
        <time>2022-06-05T16:07:22.049Z</time>
      </trkpt>
      <trkpt lat="45.876591" lon="8.630782">
        <ele>249.662854</ele>
        <time>2022-06-05T16:07:53.139Z</time>
      </trkpt>
      <trkpt lat="45.876025" lon="8.631374">
        <ele>251.647688</ele>
        <time>2022-06-05T16:08:09.766Z</time>
      </trkpt>
      <trkpt lat="45.875946" lon="8.631445">
        <ele>251.930707</ele>
        <time>2022-06-05T16:08:12.258Z</time>
      </trkpt>
      <trkpt lat="45.875842" lon="8.631540">
        <ele>252.305018</ele>
        <time>2022-06-05T16:08:15.559Z</time>
      </trkpt>
      <trkpt lat="45.875670" lon="8.631809">
        <ele>253.077270</ele>
        <time>2022-06-05T16:08:22.687Z</time>
      </trkpt>
      <trkpt lat="45.875489" lon="8.632119">
        <ele>253.932728</ele>
        <time>2022-06-05T16:08:30.903Z</time>
      </trkpt>
      <trkpt lat="45.875284" lon="8.632445">
        <ele>254.861573</ele>
        <time>2022-06-05T16:08:40.143Z</time>
      </trkpt>
      <trkpt lat="45.875378" lon="8.632550">
        <ele>255.223221</ele>
        <time>2022-06-05T16:08:44.115Z</time>
      </trkpt>
      <trkpt lat="45.875474" lon="8.632574">
        <ele>255.519157</ele>
        <time>2022-06-05T16:08:47.329Z</time>
      </trkpt>
      <trkpt lat="45.875819" lon="8.632660">
        <ele>257.935790</ele>
        <time>2022-06-05T16:08:59.341Z</time>
      </trkpt>
      <trkpt lat="45.875974" lon="8.632822">
        <ele>259.490861</ele>
        <time>2022-06-05T16:09:06.189Z</time>
      </trkpt>
      <trkpt lat="45.876009" lon="8.632981">
        <ele>260.432697</ele>
        <time>2022-06-05T16:09:10.847Z</time>
      </trkpt>
      <trkpt lat="45.875982" lon="8.633409">
        <ele>262.859909</ele>
        <time>2022-06-05T16:09:23.423Z</time>
      </trkpt>
      <trkpt lat="45.875930" lon="8.633587">
        <ele>263.950156</ele>
        <time>2022-06-05T16:09:29.404Z</time>
      </trkpt>
      <trkpt lat="45.875655" lon="8.634125">
        <ele>267.719760</ele>
        <time>2022-06-05T16:09:51.482Z</time>
      </trkpt>
      <trkpt lat="45.875638" lon="8.634227">
        <ele>268.312129</ele>
        <time>2022-06-05T16:09:54.998Z</time>
      </trkpt>
      <trkpt lat="45.875679" lon="8.634742">
        <ele>271.690417</ele>
        <time>2022-06-05T16:10:12.541Z</time>
      </trkpt>
      <trkpt lat="45.875638" lon="8.634965">
        <ele>273.663418</ele>
        <time>2022-06-05T16:10:20.641Z</time>
      </trkpt>
      <trkpt lat="45.875937" lon="8.634833">
        <ele>277.506786</ele>
        <time>2022-06-05T16:10:36.740Z</time>
      </trkpt>
      <trkpt lat="45.876096" lon="8.634668">
        <ele>279.916919</ele>
        <time>2022-06-05T16:10:46.972Z</time>
      </trkpt>
      <trkpt lat="45.876509" lon="8.633937">
        <ele>287.969959</ele>
        <time>2022-06-05T16:11:23.439Z</time>
      </trkpt>
      <trkpt lat="45.876509" lon="8.633937">
        <ele>287.969959</ele>
        <time>2022-06-05T16:11:23.450Z</time>
      </trkpt>
      <trkpt lat="45.876591" lon="8.633911">
        <ele>289.001733</ele>
        <time>2022-06-05T16:11:27.817Z</time>
      </trkpt>
      <trkpt lat="45.876658" lon="8.633930">
        <ele>289.840839</ele>
        <time>2022-06-05T16:11:31.506Z</time>
      </trkpt>
      <trkpt lat="45.876911" lon="8.634269">
        <ele>294.571429</ele>
        <time>2022-06-05T16:11:53.836Z</time>
      </trkpt>
      <trkpt lat="45.876968" lon="8.634299">
        <ele>295.536924</ele>
        <time>2022-06-05T16:11:57.903Z</time>
      </trkpt>
      <trkpt lat="45.877037" lon="8.634289">
        <ele>296.639900</ele>
        <time>2022-06-05T16:12:02.818Z</time>
      </trkpt>
      <trkpt lat="45.877260" lon="8.634072">
        <ele>300.923852</ele>
        <time>2022-06-05T16:12:20.648Z</time>
      </trkpt>
      <trkpt lat="45.877394" lon="8.633896">
        <ele>303.811708</ele>
        <time>2022-06-05T16:12:34.221Z</time>
      </trkpt>
      <trkpt lat="45.877615" lon="8.633481">
        <ele>309.596986</ele>
        <time>2022-06-05T16:13:00.251Z</time>
      </trkpt>
      <trkpt lat="45.877725" lon="8.633321">
        <ele>312.086823</ele>
        <time>2022-06-05T16:13:10.662Z</time>
      </trkpt>
      <trkpt lat="45.877786" lon="8.633319">
        <ele>313.057245</ele>
        <time>2022-06-05T16:13:15.117Z</time>
      </trkpt>
      <trkpt lat="45.877868" lon="8.633478">
        <ele>315.248203</ele>
        <time>2022-06-05T16:13:25.561Z</time>
      </trkpt>
      <trkpt lat="45.877915" lon="8.633692">
        <ele>317.732828</ele>
        <time>2022-06-05T16:13:35.476Z</time>
      </trkpt>
      <trkpt lat="45.877908" lon="8.634625">
        <ele>327.048300</ele>
        <time>2022-06-05T16:14:16.968Z</time>
      </trkpt>
      <trkpt lat="45.877926" lon="8.634935">
        <ele>329.992455</ele>
        <time>2022-06-05T16:14:29.719Z</time>
      </trkpt>
      <trkpt lat="45.877911" lon="8.635115">
        <ele>331.708211</ele>
        <time>2022-06-05T16:14:37.525Z</time>
      </trkpt>
      <trkpt lat="45.877819" lon="8.635325">
        <ele>334.056514</ele>
        <time>2022-06-05T16:14:47.724Z</time>
      </trkpt>
      <trkpt lat="45.877766" lon="8.635598">
        <ele>336.738886</ele>
        <time>2022-06-05T16:15:00.622Z</time>
      </trkpt>
      <trkpt lat="45.877658" lon="8.636403">
        <ele>344.497947</ele>
        <time>2022-06-05T16:15:32.206Z</time>
      </trkpt>
      <trkpt lat="45.877494" lon="8.636917">
        <ele>348.755781</ele>
        <time>2022-06-05T16:15:52.211Z</time>
      </trkpt>
      <trkpt lat="45.877458" lon="8.637104">
        <ele>350.128065</ele>
        <time>2022-06-05T16:15:58.852Z</time>
      </trkpt>
      <trkpt lat="45.877465" lon="8.637175">
        <ele>350.635258</ele>
        <time>2022-06-05T16:16:01.237Z</time>
      </trkpt>
      <trkpt lat="45.877569" lon="8.637197">
        <ele>351.703241</ele>
        <time>2022-06-05T16:16:06.231Z</time>
      </trkpt>
      <trkpt lat="45.877650" lon="8.637180">
        <ele>352.534897</ele>
        <time>2022-06-05T16:16:10.085Z</time>
      </trkpt>
      <trkpt lat="45.878024" lon="8.636812">
        <ele>357.140557</ele>
        <time>2022-06-05T16:16:31.494Z</time>
      </trkpt>
      <trkpt lat="45.878131" lon="8.636630">
        <ele>358.825423</ele>
        <time>2022-06-05T16:16:39.276Z</time>
      </trkpt>
      <trkpt lat="45.878291" lon="8.636142">
        <ele>362.640609</ele>
        <time>2022-06-05T16:16:56.846Z</time>
      </trkpt>
      <trkpt lat="45.878359" lon="8.636103">
        <ele>363.384488</ele>
        <time>2022-06-05T16:17:00.185Z</time>
      </trkpt>
      <trkpt lat="45.878448" lon="8.636152">
        <ele>364.171065</ele>
        <time>2022-06-05T16:17:04.498Z</time>
      </trkpt>
      <trkpt lat="45.878480" lon="8.636308">
        <ele>364.946466</ele>
        <time>2022-06-05T16:17:09.625Z</time>
      </trkpt>
      <trkpt lat="45.878487" lon="8.636543">
        <ele>366.067937</ele>
        <time>2022-06-05T16:17:16.908Z</time>
      </trkpt>
      <trkpt lat="45.878417" lon="8.637060">
        <ele>368.579105</ele>
        <time>2022-06-05T16:17:32.429Z</time>
      </trkpt>
      <trkpt lat="45.878087" lon="8.638194">
        <ele>374.439217</ele>
        <time>2022-06-05T16:18:04.038Z</time>
      </trkpt>
      <trkpt lat="45.877789" lon="8.639476">
        <ele>380.446801</ele>
        <time>2022-06-05T16:18:31.789Z</time>
      </trkpt>
      <trkpt lat="45.877777" lon="8.639567">
        <ele>380.847980</ele>
        <time>2022-06-05T16:18:33.743Z</time>
      </trkpt>
      <trkpt lat="45.877797" lon="8.639758">
        <ele>381.684610</ele>
        <time>2022-06-05T16:18:37.752Z</time>
      </trkpt>
      <trkpt lat="45.877889" lon="8.639933">
        <ele>382.634472</ele>
        <time>2022-06-05T16:18:43.035Z</time>
      </trkpt>
      <trkpt lat="45.878340" lon="8.640683">
        <ele>386.927184</ele>
        <time>2022-06-05T16:19:11.242Z</time>
      </trkpt>
      <trkpt lat="45.878530" lon="8.640836">
        <ele>389.133850</ele>
        <time>2022-06-05T16:19:21.695Z</time>
      </trkpt>
      <trkpt lat="45.878720" lon="8.640850">
        <ele>391.347597</ele>
        <time>2022-06-05T16:19:31.786Z</time>
      </trkpt>
      <trkpt lat="45.878854" lon="8.640752">
        <ele>393.097286</ele>
        <time>2022-06-05T16:19:39.877Z</time>
      </trkpt>
      <trkpt lat="45.878937" lon="8.640577">
        <ele>394.812631</ele>
        <time>2022-06-05T16:19:48.439Z</time>
      </trkpt>
      <trkpt lat="45.879084" lon="8.640319">
        <ele>397.513335</ele>
        <time>2022-06-05T16:20:02.186Z</time>
      </trkpt>
      <trkpt lat="45.879287" lon="8.640082">
        <ele>400.557250</ele>
        <time>2022-06-05T16:20:18.169Z</time>
      </trkpt>
      <trkpt lat="45.879360" lon="8.639933">
        <ele>402.033181</ele>
        <time>2022-06-05T16:20:25.335Z</time>
      </trkpt>
      <trkpt lat="45.879457" lon="8.639890">
        <ele>403.214399</ele>
        <time>2022-06-05T16:20:31.398Z</time>
      </trkpt>
      <trkpt lat="45.879731" lon="8.639912">
        <ele>406.407640</ele>
        <time>2022-06-05T16:20:45.901Z</time>
      </trkpt>
      <trkpt lat="45.879837" lon="8.639825">
        <ele>407.828200</ele>
        <time>2022-06-05T16:20:52.454Z</time>
      </trkpt>
      <trkpt lat="45.879871" lon="8.639582">
        <ele>409.464779</ele>
        <time>2022-06-05T16:21:00.498Z</time>
      </trkpt>
      <trkpt lat="45.879807" lon="8.638777">
        <ele>414.508194</ele>
        <time>2022-06-05T16:21:25.573Z</time>
      </trkpt>
      <trkpt lat="45.879763" lon="8.638348">
        <ele>417.207397</ele>
        <time>2022-06-05T16:21:37.828Z</time>
      </trkpt>
      <trkpt lat="45.879573" lon="8.637122">
        <ele>425.193873</ele>
        <time>2022-06-05T16:22:13.618Z</time>
      </trkpt>
      <trkpt lat="45.880011" lon="8.636359">
        <ele>432.807459</ele>
        <time>2022-06-05T16:22:46.320Z</time>
      </trkpt>
      <trkpt lat="45.880202" lon="8.635969">
        <ele>436.478468</ele>
        <time>2022-06-05T16:23:05.190Z</time>
      </trkpt>
      <trkpt lat="45.880561" lon="8.635704">
        <ele>440.942060</ele>
        <time>2022-06-05T16:23:32.978Z</time>
      </trkpt>
      <trkpt lat="45.880647" lon="8.635614">
        <ele>442.118736</ele>
        <time>2022-06-05T16:23:40.730Z</time>
      </trkpt>
      <trkpt lat="45.881200" lon="8.635042">
        <ele>447.777421</ele>
        <time>2022-06-05T16:24:20.464Z</time>
      </trkpt>
      <trkpt lat="45.881200" lon="8.635042">
        <ele>447.777421</ele>
        <time>2022-06-05T16:24:20.484Z</time>
      </trkpt>
      <trkpt lat="45.881330" lon="8.634636">
        <ele>450.032474</ele>
        <time>2022-06-05T16:24:34.444Z</time>
      </trkpt>
      <trkpt lat="45.881704" lon="8.634146">
        <ele>453.701699</ele>
        <time>2022-06-05T16:24:58.017Z</time>
      </trkpt>
      <trkpt lat="45.881958" lon="8.633589">
        <ele>457.061714</ele>
        <time>2022-06-05T16:25:17.443Z</time>
      </trkpt>
      <trkpt lat="45.882073" lon="8.633404">
        <ele>457.540606</ele>
        <time>2022-06-05T16:25:24.429Z</time>
      </trkpt>
      <trkpt lat="45.882179" lon="8.633337">
        <ele>457.773646</ele>
        <time>2022-06-05T16:25:28.573Z</time>
      </trkpt>
      <trkpt lat="45.882299" lon="8.633384">
        <ele>458.023938</ele>
        <time>2022-06-05T16:25:33.179Z</time>
      </trkpt>
      <trkpt lat="45.882441" lon="8.633624">
        <ele>458.465167</ele>
        <time>2022-06-05T16:25:41.133Z</time>
      </trkpt>
      <trkpt lat="45.882631" lon="8.633947">
        <ele>459.057544</ele>
        <time>2022-06-05T16:25:51.790Z</time>
      </trkpt>
      <trkpt lat="45.882973" lon="8.634424">
        <ele>460.016770</ele>
        <time>2022-06-05T16:26:08.869Z</time>
      </trkpt>
      <trkpt lat="45.883360" lon="8.634901">
        <ele>461.201143</ele>
        <time>2022-06-05T16:26:28.364Z</time>
      </trkpt>
      <trkpt lat="45.884009" lon="8.635993">
        <ele>464.982681</ele>
        <time>2022-06-05T16:27:06.317Z</time>
      </trkpt>
      <trkpt lat="45.884226" lon="8.636527">
        <ele>466.611136</ele>
        <time>2022-06-05T16:27:22.473Z</time>
      </trkpt>
      <trkpt lat="45.884362" lon="8.636983">
        <ele>468.411094</ele>
        <time>2022-06-05T16:27:36.831Z</time>
      </trkpt>
      <trkpt lat="45.884509" lon="8.637706">
        <ele>474.315441</ele>
        <time>2022-06-05T16:28:06.187Z</time>
      </trkpt>
      <trkpt lat="45.884750" lon="8.638454">
        <ele>480.776550</ele>
        <time>2022-06-05T16:28:43.762Z</time>
      </trkpt>
      <trkpt lat="45.884803" lon="8.639015">
        <ele>485.214475</ele>
        <time>2022-06-05T16:29:11.612Z</time>
      </trkpt>
      <trkpt lat="45.884754" lon="8.639553">
        <ele>488.350934</ele>
        <time>2022-06-05T16:29:38.064Z</time>
      </trkpt>
      <trkpt lat="45.884767" lon="8.639898">
        <ele>489.101663</ele>
        <time>2022-06-05T16:29:53.520Z</time>
      </trkpt>
      <trkpt lat="45.884845" lon="8.640259">
        <ele>489.922978</ele>
        <time>2022-06-05T16:30:08.728Z</time>
      </trkpt>
      <trkpt lat="45.885045" lon="8.640383">
        <ele>490.602926</ele>
        <time>2022-06-05T16:30:18.880Z</time>
      </trkpt>
      <trkpt lat="45.885161" lon="8.640700">
        <ele>491.381087</ele>
        <time>2022-06-05T16:30:28.458Z</time>
      </trkpt>
      <trkpt lat="45.885089" lon="8.640972">
        <ele>492.013387</ele>
        <time>2022-06-05T16:30:35.780Z</time>
      </trkpt>
      <trkpt lat="45.884905" lon="8.641462">
        <ele>493.223113</ele>
        <time>2022-06-05T16:30:46.788Z</time>
      </trkpt>
      <trkpt lat="45.884744" lon="8.641827">
        <ele>491.635755</ele>
        <time>2022-06-05T16:30:54.391Z</time>
      </trkpt>
      <trkpt lat="45.884702" lon="8.642860">
        <ele>484.796250</ele>
        <time>2022-06-05T16:31:12.040Z</time>
      </trkpt>
      <trkpt lat="45.884772" lon="8.643072">
        <ele>483.245335</ele>
        <time>2022-06-05T16:31:16.141Z</time>
      </trkpt>
      <trkpt lat="45.885039" lon="8.643795">
        <ele>477.835645</ele>
        <time>2022-06-05T16:31:31.162Z</time>
      </trkpt>
      <trkpt lat="45.885097" lon="8.644075">
        <ele>476.742470</ele>
        <time>2022-06-05T16:31:36.775Z</time>
      </trkpt>
      <trkpt lat="45.885152" lon="8.644219">
        <ele>477.299825</ele>
        <time>2022-06-05T16:31:40.179Z</time>
      </trkpt>
      <trkpt lat="45.885225" lon="8.644348">
        <ele>477.863955</ele>
        <time>2022-06-05T16:31:43.801Z</time>
      </trkpt>
      <trkpt lat="45.885319" lon="8.644454">
        <ele>478.446487</ele>
        <time>2022-06-05T16:31:46.305Z</time>
      </trkpt>
      <trkpt lat="45.885619" lon="8.644503">
        <ele>479.918323</ele>
        <time>2022-06-05T16:31:54.451Z</time>
      </trkpt>
      <trkpt lat="45.885660" lon="8.644440">
        <ele>480.210975</ele>
        <time>2022-06-05T16:31:56.365Z</time>
      </trkpt>
      <trkpt lat="45.885660" lon="8.644379">
        <ele>480.417963</ele>
        <time>2022-06-05T16:31:57.957Z</time>
      </trkpt>
      <trkpt lat="45.885565" lon="8.644154">
        <ele>481.310916</ele>
        <time>2022-06-05T16:32:05.170Z</time>
      </trkpt>
      <trkpt lat="45.885549" lon="8.644042">
        <ele>481.698882</ele>
        <time>2022-06-05T16:32:09.153Z</time>
      </trkpt>
      <trkpt lat="45.885559" lon="8.643988">
        <ele>481.888491</ele>
        <time>2022-06-05T16:32:11.033Z</time>
      </trkpt>
      <trkpt lat="45.885588" lon="8.643969">
        <ele>482.043866</ele>
        <time>2022-06-05T16:32:12.683Z</time>
      </trkpt>
      <trkpt lat="45.885697" lon="8.644079">
        <ele>482.693210</ele>
        <time>2022-06-05T16:32:19.975Z</time>
      </trkpt>
      <trkpt lat="45.885807" lon="8.644260">
        <ele>483.508528</ele>
        <time>2022-06-05T16:32:28.825Z</time>
      </trkpt>
      <trkpt lat="45.886032" lon="8.644726">
        <ele>485.248850</ele>
        <time>2022-06-05T16:32:50.966Z</time>
      </trkpt>
      <trkpt lat="45.886082" lon="8.644775">
        <ele>485.281233</ele>
        <time>2022-06-05T16:32:54.495Z</time>
      </trkpt>
      <trkpt lat="45.886149" lon="8.644761">
        <ele>485.317456</ele>
        <time>2022-06-05T16:32:58.341Z</time>
      </trkpt>
      <trkpt lat="45.886162" lon="8.644524">
        <ele>485.405993</ele>
        <time>2022-06-05T16:33:06.466Z</time>
      </trkpt>
      <trkpt lat="45.886065" lon="8.643967">
        <ele>485.619823</ele>
        <time>2022-06-05T16:33:20.283Z</time>
      </trkpt>
      <trkpt lat="45.886055" lon="8.643657">
        <ele>485.735397</ele>
        <time>2022-06-05T16:33:26.061Z</time>
      </trkpt>
      <trkpt lat="45.886065" lon="8.643967">
        <ele>485.850971</ele>
        <time>2022-06-05T16:33:30.057Z</time>
      </trkpt>
      <trkpt lat="45.886162" lon="8.644524">
        <ele>486.064802</ele>
        <time>2022-06-05T16:33:36.344Z</time>
      </trkpt>
      <trkpt lat="45.886149" lon="8.644761">
        <ele>486.153339</ele>
        <time>2022-06-05T16:33:38.700Z</time>
      </trkpt>
      <trkpt lat="45.886082" lon="8.644775">
        <ele>486.176905</ele>
        <time>2022-06-05T16:33:39.639Z</time>
      </trkpt>
      <trkpt lat="45.886032" lon="8.644726">
        <ele>485.836758</ele>
        <time>2022-06-05T16:33:40.486Z</time>
      </trkpt>
      <trkpt lat="45.885807" lon="8.644260">
        <ele>483.618188</ele>
        <time>2022-06-05T16:33:45.988Z</time>
      </trkpt>
      <trkpt lat="45.885697" lon="8.644079">
        <ele>482.678240</ele>
        <time>2022-06-05T16:33:48.328Z</time>
      </trkpt>
      <trkpt lat="45.885588" lon="8.643969">
        <ele>481.929638</ele>
        <time>2022-06-05T16:33:50.194Z</time>
      </trkpt>
      <trkpt lat="45.885559" lon="8.643988">
        <ele>481.750513</ele>
        <time>2022-06-05T16:33:50.649Z</time>
      </trkpt>
      <trkpt lat="45.885549" lon="8.644042">
        <ele>481.531920</ele>
        <time>2022-06-05T16:33:51.203Z</time>
      </trkpt>
      <trkpt lat="45.885565" lon="8.644154">
        <ele>481.084650</ele>
        <time>2022-06-05T16:33:52.341Z</time>
      </trkpt>
      <trkpt lat="45.885660" lon="8.644379">
        <ele>480.055201</ele>
        <time>2022-06-05T16:33:55.089Z</time>
      </trkpt>
      <trkpt lat="45.885660" lon="8.644440">
        <ele>479.816572</ele>
        <time>2022-06-05T16:33:55.736Z</time>
      </trkpt>
      <trkpt lat="45.885619" lon="8.644503">
        <ele>479.479186</ele>
        <time>2022-06-05T16:33:56.712Z</time>
      </trkpt>
      <trkpt lat="45.885319" lon="8.644454">
        <ele>477.782366</ele>
        <time>2022-06-05T16:34:02.253Z</time>
      </trkpt>
      <trkpt lat="45.885225" lon="8.644348">
        <ele>477.110788</ele>
        <time>2022-06-05T16:34:05.126Z</time>
      </trkpt>
      <trkpt lat="45.885152" lon="8.644219">
        <ele>476.460426</ele>
        <time>2022-06-05T16:34:09.489Z</time>
      </trkpt>
      <trkpt lat="45.885097" lon="8.644075">
        <ele>476.510180</ele>
        <time>2022-06-05T16:34:14.054Z</time>
      </trkpt>
      <trkpt lat="45.885039" lon="8.643795">
        <ele>478.381810</ele>
        <time>2022-06-05T16:34:23.369Z</time>
      </trkpt>
      <trkpt lat="45.884772" lon="8.643072">
        <ele>483.625386</ele>
        <time>2022-06-05T16:34:53.073Z</time>
      </trkpt>
      <trkpt lat="45.884702" lon="8.642860">
        <ele>485.128678</ele>
        <time>2022-06-05T16:35:03.192Z</time>
      </trkpt>
      <trkpt lat="45.884744" lon="8.641827">
        <ele>491.758164</ele>
        <time>2022-06-05T16:35:53.275Z</time>
      </trkpt>
      <trkpt lat="45.884905" lon="8.641462">
        <ele>492.238466</ele>
        <time>2022-06-05T16:36:11.593Z</time>
      </trkpt>
      <trkpt lat="45.885089" lon="8.640972">
        <ele>491.491557</ele>
        <time>2022-06-05T16:36:28.305Z</time>
      </trkpt>
      <trkpt lat="45.885161" lon="8.640700">
        <ele>491.101163</ele>
        <time>2022-06-05T16:36:35.533Z</time>
      </trkpt>
      <trkpt lat="45.885045" lon="8.640383">
        <ele>490.620711</ele>
        <time>2022-06-05T16:36:43.265Z</time>
      </trkpt>
      <trkpt lat="45.884845" lon="8.640259">
        <ele>490.200898</ele>
        <time>2022-06-05T16:36:49.224Z</time>
      </trkpt>
      <trkpt lat="45.884767" lon="8.639898">
        <ele>489.693802</ele>
        <time>2022-06-05T16:36:55.951Z</time>
      </trkpt>
      <trkpt lat="45.884754" lon="8.639553">
        <ele>489.230287</ele>
        <time>2022-06-05T16:37:01.949Z</time>
      </trkpt>
      <trkpt lat="45.884803" lon="8.639015">
        <ele>485.184815</ele>
        <time>2022-06-05T16:37:11.193Z</time>
      </trkpt>
      <trkpt lat="45.884750" lon="8.638454">
        <ele>480.641032</ele>
        <time>2022-06-05T16:37:20.827Z</time>
      </trkpt>
      <trkpt lat="45.884509" lon="8.637706">
        <ele>474.025807</ele>
        <time>2022-06-05T16:37:35.039Z</time>
      </trkpt>
      <trkpt lat="45.884362" lon="8.636983">
        <ele>468.271257</ele>
        <time>2022-06-05T16:37:48.579Z</time>
      </trkpt>
      <trkpt lat="45.884226" lon="8.636527">
        <ele>466.862285</ele>
        <time>2022-06-05T16:37:58.588Z</time>
      </trkpt>
      <trkpt lat="45.884009" lon="8.635993">
        <ele>465.106128</ele>
        <time>2022-06-05T16:38:12.358Z</time>
      </trkpt>
      <trkpt lat="45.883360" lon="8.634901">
        <ele>461.061544</ele>
        <time>2022-06-05T16:38:43.672Z</time>
      </trkpt>
      <trkpt lat="45.882973" lon="8.634424">
        <ele>460.072299</ele>
        <time>2022-06-05T16:38:59.560Z</time>
      </trkpt>
      <trkpt lat="45.882758" lon="8.634125">
        <ele>459.491772</ele>
        <time>2022-06-05T16:39:10.244Z</time>
      </trkpt>
      <trkpt lat="45.882631" lon="8.633947">
        <ele>459.147555</ele>
        <time>2022-06-05T16:39:16.631Z</time>
      </trkpt>
      <trkpt lat="45.882441" lon="8.633624">
        <ele>458.576473</ele>
        <time>2022-06-05T16:39:27.136Z</time>
      </trkpt>
      <trkpt lat="45.882299" lon="8.633384">
        <ele>458.151106</ele>
        <time>2022-06-05T16:39:34.985Z</time>
      </trkpt>
      <trkpt lat="45.882179" lon="8.633337">
        <ele>457.909812</ele>
        <time>2022-06-05T16:39:39.047Z</time>
      </trkpt>
      <trkpt lat="45.882073" lon="8.633404">
        <ele>457.685149</ele>
        <time>2022-06-05T16:39:43.177Z</time>
      </trkpt>
      <trkpt lat="45.881958" lon="8.633589">
        <ele>456.715222</ele>
        <time>2022-06-05T16:39:48.296Z</time>
      </trkpt>
      <trkpt lat="45.881704" lon="8.634146">
        <ele>453.553696</ele>
        <time>2022-06-05T16:40:01.660Z</time>
      </trkpt>
      <trkpt lat="45.881330" lon="8.634636">
        <ele>450.101227</ele>
        <time>2022-06-05T16:40:15.539Z</time>
      </trkpt>
      <trkpt lat="45.881200" lon="8.635042">
        <ele>447.979389</ele>
        <time>2022-06-05T16:40:24.195Z</time>
      </trkpt>
      <trkpt lat="45.881200" lon="8.635042">
        <ele>447.979389</ele>
        <time>2022-06-05T16:40:24.208Z</time>
      </trkpt>
      <trkpt lat="45.880647" lon="8.635614">
        <ele>442.059521</ele>
        <time>2022-06-05T16:40:41.596Z</time>
      </trkpt>
      <trkpt lat="45.880561" lon="8.635704">
        <ele>440.873014</ele>
        <time>2022-06-05T16:40:44.190Z</time>
      </trkpt>
      <trkpt lat="45.880202" lon="8.635969">
        <ele>436.372130</ele>
        <time>2022-06-05T16:40:54.090Z</time>
      </trkpt>
      <trkpt lat="45.880011" lon="8.636359">
        <ele>432.670451</ele>
        <time>2022-06-05T16:40:58.704Z</time>
      </trkpt>
      <trkpt lat="45.879573" lon="8.637122">
        <ele>425.051820</ele>
        <time>2022-06-05T16:41:08.585Z</time>
      </trkpt>
      <trkpt lat="45.879763" lon="8.638348">
        <ele>417.305335</ele>
        <time>2022-06-05T16:41:21.577Z</time>
      </trkpt>
      <trkpt lat="45.879807" lon="8.638777">
        <ele>414.630910</ele>
        <time>2022-06-05T16:41:26.078Z</time>
      </trkpt>
      <trkpt lat="45.879871" lon="8.639582">
        <ele>409.633792</ele>
        <time>2022-06-05T16:41:34.292Z</time>
      </trkpt>
      <trkpt lat="45.879837" lon="8.639825">
        <ele>407.713771</ele>
        <time>2022-06-05T16:41:36.789Z</time>
      </trkpt>
      <trkpt lat="45.879731" lon="8.639912">
        <ele>406.290428</ele>
        <time>2022-06-05T16:41:38.492Z</time>
      </trkpt>
      <trkpt lat="45.879457" lon="8.639890">
        <ele>403.090930</ele>
        <time>2022-06-05T16:41:42.353Z</time>
      </trkpt>
      <trkpt lat="45.879360" lon="8.639933">
        <ele>401.907396</ele>
        <time>2022-06-05T16:41:43.759Z</time>
      </trkpt>
      <trkpt lat="45.879311" lon="8.640034">
        <ele>400.908205</ele>
        <time>2022-06-05T16:41:44.952Z</time>
      </trkpt>
      <trkpt lat="45.879287" lon="8.640082">
        <ele>400.428541</ele>
        <time>2022-06-05T16:41:45.521Z</time>
      </trkpt>
      <trkpt lat="45.879084" lon="8.640319">
        <ele>397.378661</ele>
        <time>2022-06-05T16:41:49.122Z</time>
      </trkpt>
      <trkpt lat="45.878937" lon="8.640577">
        <ele>394.672665</ele>
        <time>2022-06-05T16:41:52.326Z</time>
      </trkpt>
      <trkpt lat="45.878854" lon="8.640752">
        <ele>392.953959</ele>
        <time>2022-06-05T16:41:54.372Z</time>
      </trkpt>
      <trkpt lat="45.878720" lon="8.640850">
        <ele>391.200841</ele>
        <time>2022-06-05T16:41:56.488Z</time>
      </trkpt>
      <trkpt lat="45.878530" lon="8.640836">
        <ele>388.982756</ele>
        <time>2022-06-05T16:41:59.157Z</time>
      </trkpt>
      <trkpt lat="45.878340" lon="8.640683">
        <ele>387.289055</ele>
        <time>2022-06-05T16:42:02.281Z</time>
      </trkpt>
      <trkpt lat="45.877889" lon="8.639933">
        <ele>382.769796</ele>
        <time>2022-06-05T16:42:12.539Z</time>
      </trkpt>
      <trkpt lat="45.877797" lon="8.639758">
        <ele>381.769806</ele>
        <time>2022-06-05T16:42:14.929Z</time>
      </trkpt>
      <trkpt lat="45.877777" lon="8.639567">
        <ele>380.889023</ele>
        <time>2022-06-05T16:42:17.218Z</time>
      </trkpt>
      <trkpt lat="45.877789" lon="8.639476">
        <ele>380.466672</ele>
        <time>2022-06-05T16:42:18.282Z</time>
      </trkpt>
      <trkpt lat="45.878087" lon="8.638194">
        <ele>374.286695</ele>
        <time>2022-06-05T16:42:34.305Z</time>
      </trkpt>
      <trkpt lat="45.878417" lon="8.637060">
        <ele>368.641209</ele>
        <time>2022-06-05T16:42:47.416Z</time>
      </trkpt>
      <trkpt lat="45.878487" lon="8.636543">
        <ele>366.222012</ele>
        <time>2022-06-05T16:42:52.819Z</time>
      </trkpt>
      <trkpt lat="45.878480" lon="8.636308">
        <ele>365.141614</ele>
        <time>2022-06-05T16:42:55.201Z</time>
      </trkpt>
      <trkpt lat="45.878448" lon="8.636152">
        <ele>364.224107</ele>
        <time>2022-06-05T16:42:56.850Z</time>
      </trkpt>
      <trkpt lat="45.878359" lon="8.636103">
        <ele>363.270919</ele>
        <time>2022-06-05T16:42:58.238Z</time>
      </trkpt>
      <trkpt lat="45.878291" lon="8.636142">
        <ele>362.538678</ele>
        <time>2022-06-05T16:42:59.294Z</time>
      </trkpt>
      <trkpt lat="45.878131" lon="8.636630">
        <ele>358.783179</ele>
        <time>2022-06-05T16:43:04.715Z</time>
      </trkpt>
      <trkpt lat="45.878024" lon="8.636812">
        <ele>357.124672</ele>
        <time>2022-06-05T16:43:07.097Z</time>
      </trkpt>
      <trkpt lat="45.877650" lon="8.637180">
        <ele>352.591066</ele>
        <time>2022-06-05T16:43:13.617Z</time>
      </trkpt>
      <trkpt lat="45.877569" lon="8.637197">
        <ele>351.772420</ele>
        <time>2022-06-05T16:43:14.801Z</time>
      </trkpt>
      <trkpt lat="45.877465" lon="8.637175">
        <ele>350.721145</ele>
        <time>2022-06-05T16:43:16.306Z</time>
      </trkpt>
      <trkpt lat="45.877458" lon="8.637104">
        <ele>350.221888</ele>
        <time>2022-06-05T16:43:17.020Z</time>
      </trkpt>
      <trkpt lat="45.877494" lon="8.636917">
        <ele>348.871072</ele>
        <time>2022-06-05T16:43:18.953Z</time>
      </trkpt>
      <trkpt lat="45.877658" lon="8.636403">
        <ele>344.324546</ele>
        <time>2022-06-05T16:43:24.529Z</time>
      </trkpt>
      <trkpt lat="45.877766" lon="8.635598">
        <ele>336.686101</ele>
        <time>2022-06-05T16:43:32.494Z</time>
      </trkpt>
      <trkpt lat="45.877819" lon="8.635325">
        <ele>334.045427</ele>
        <time>2022-06-05T16:43:35.186Z</time>
      </trkpt>
      <trkpt lat="45.877911" lon="8.635115">
        <ele>331.733628</ele>
        <time>2022-06-05T16:43:37.566Z</time>
      </trkpt>
      <trkpt lat="45.877926" lon="8.634935">
        <ele>330.044544</ele>
        <time>2022-06-05T16:43:39.300Z</time>
      </trkpt>
      <trkpt lat="45.877908" lon="8.634625">
        <ele>327.146156</ele>
        <time>2022-06-05T16:43:42.295Z</time>
      </trkpt>
      <trkpt lat="45.877915" lon="8.633692">
        <ele>317.652820</ele>
        <time>2022-06-05T16:43:51.174Z</time>
      </trkpt>
      <trkpt lat="45.877868" lon="8.633478">
        <ele>315.165185</ele>
        <time>2022-06-05T16:43:53.313Z</time>
      </trkpt>
      <trkpt lat="45.877786" lon="8.633319">
        <ele>312.971573</ele>
        <time>2022-06-05T16:43:55.164Z</time>
      </trkpt>
      <trkpt lat="45.877725" lon="8.633321">
        <ele>311.999976</ele>
        <time>2022-06-05T16:43:55.980Z</time>
      </trkpt>
      <trkpt lat="45.877615" lon="8.633481">
        <ele>309.507123</ele>
        <time>2022-06-05T16:43:58.104Z</time>
      </trkpt>
      <trkpt lat="45.877394" lon="8.633896">
        <ele>303.714837</ele>
        <time>2022-06-05T16:44:03.006Z</time>
      </trkpt>
      <trkpt lat="45.877260" lon="8.634072">
        <ele>300.823483</ele>
        <time>2022-06-05T16:44:05.437Z</time>
      </trkpt>
      <trkpt lat="45.877037" lon="8.634289">
        <ele>296.534342</ele>
        <time>2022-06-05T16:44:09.105Z</time>
      </trkpt>
      <trkpt lat="45.876968" lon="8.634299">
        <ele>295.430029</ele>
        <time>2022-06-05T16:44:10.040Z</time>
      </trkpt>
      <trkpt lat="45.876911" lon="8.634269">
        <ele>294.463365</ele>
        <time>2022-06-05T16:44:10.856Z</time>
      </trkpt>
      <trkpt lat="45.876658" lon="8.633930">
        <ele>290.032464</ele>
        <time>2022-06-05T16:44:15.592Z</time>
      </trkpt>
      <trkpt lat="45.876591" lon="8.633911">
        <ele>289.176277</ele>
        <time>2022-06-05T16:44:16.546Z</time>
      </trkpt>
      <trkpt lat="45.876509" lon="8.633937">
        <ele>288.123502</ele>
        <time>2022-06-05T16:44:17.722Z</time>
      </trkpt>
      <trkpt lat="45.876509" lon="8.633937">
        <ele>288.123502</ele>
        <time>2022-06-05T16:44:17.725Z</time>
      </trkpt>
      <trkpt lat="45.876096" lon="8.634668">
        <ele>279.906544</ele>
        <time>2022-06-05T16:44:26.864Z</time>
      </trkpt>
      <trkpt lat="45.875937" lon="8.634833">
        <ele>277.447352</ele>
        <time>2022-06-05T16:44:29.637Z</time>
      </trkpt>
      <trkpt lat="45.875638" lon="8.634965">
        <ele>273.525754</ele>
        <time>2022-06-05T16:44:34.066Z</time>
      </trkpt>
      <trkpt lat="45.875679" lon="8.634742">
        <ele>271.512592</ele>
        <time>2022-06-05T16:44:36.496Z</time>
      </trkpt>
      <trkpt lat="45.875638" lon="8.634227">
        <ele>268.465646</ele>
        <time>2022-06-05T16:44:41.998Z</time>
      </trkpt>
      <trkpt lat="45.875655" lon="8.634125">
        <ele>267.851601</ele>
        <time>2022-06-05T16:44:43.112Z</time>
      </trkpt>
      <trkpt lat="45.875930" lon="8.633587">
        <ele>263.944053</ele>
        <time>2022-06-05T16:44:50.227Z</time>
      </trkpt>
      <trkpt lat="45.875982" lon="8.633409">
        <ele>262.813910</ele>
        <time>2022-06-05T16:44:52.320Z</time>
      </trkpt>
      <trkpt lat="45.876009" lon="8.632981">
        <ele>260.297877</ele>
        <time>2022-06-05T16:44:57.036Z</time>
      </trkpt>
      <trkpt lat="45.875974" lon="8.632822">
        <ele>259.321576</ele>
        <time>2022-06-05T16:44:58.894Z</time>
      </trkpt>
      <trkpt lat="45.875819" lon="8.632660">
        <ele>257.709599</ele>
        <time>2022-06-05T16:45:02.070Z</time>
      </trkpt>
      <trkpt lat="45.875474" lon="8.632574">
        <ele>255.784104</ele>
        <time>2022-06-05T16:45:08.000Z</time>
      </trkpt>
      <trkpt lat="45.875378" lon="8.632550">
        <ele>255.491364</ele>
        <time>2022-06-05T16:45:09.687Z</time>
      </trkpt>
      <trkpt lat="45.875284" lon="8.632445">
        <ele>255.133623</ele>
        <time>2022-06-05T16:45:11.715Z</time>
      </trkpt>
      <trkpt lat="45.875489" lon="8.632119">
        <ele>254.214809</ele>
        <time>2022-06-05T16:45:16.850Z</time>
      </trkpt>
      <trkpt lat="45.875670" lon="8.631809">
        <ele>253.368589</ele>
        <time>2022-06-05T16:45:21.681Z</time>
      </trkpt>
      <trkpt lat="45.875842" lon="8.631540">
        <ele>252.604677</ele>
        <time>2022-06-05T16:45:26.169Z</time>
      </trkpt>
      <trkpt lat="45.875946" lon="8.631445">
        <ele>252.234408</ele>
        <time>2022-06-05T16:45:28.451Z</time>
      </trkpt>
      <trkpt lat="45.876025" lon="8.631374">
        <ele>251.954445</ele>
        <time>2022-06-05T16:45:30.190Z</time>
      </trkpt>
      <trkpt lat="45.876591" lon="8.630782">
        <ele>251.171426</ele>
        <time>2022-06-05T16:45:45.393Z</time>
      </trkpt>
      <trkpt lat="45.877453" lon="8.629754">
        <ele>251.860607</ele>
        <time>2022-06-05T16:46:12.169Z</time>
      </trkpt>
      <trkpt lat="45.877614" lon="8.629592">
        <ele>251.981525</ele>
        <time>2022-06-05T16:46:17.065Z</time>
      </trkpt>
      <trkpt lat="45.877945" lon="8.629296">
        <ele>252.606411</ele>
        <time>2022-06-05T16:46:27.227Z</time>
      </trkpt>
      <trkpt lat="45.878191" lon="8.629086">
        <ele>253.185983</ele>
        <time>2022-06-05T16:46:35.045Z</time>
      </trkpt>
      <trkpt lat="45.878428" lon="8.628880">
        <ele>253.747023</ele>
        <time>2022-06-05T16:46:42.714Z</time>
      </trkpt>
      <trkpt lat="45.878605" lon="8.628799">
        <ele>254.123256</ele>
        <time>2022-06-05T16:46:47.932Z</time>
      </trkpt>
      <trkpt lat="45.879030" lon="8.628696">
        <ele>254.996180</ele>
        <time>2022-06-05T16:46:59.683Z</time>
      </trkpt>
      <trkpt lat="45.879507" lon="8.628526">
        <ele>255.714139</ele>
        <time>2022-06-05T16:47:12.646Z</time>
      </trkpt>
      <trkpt lat="45.879638" lon="8.628497">
        <ele>255.730424</ele>
        <time>2022-06-05T16:47:16.104Z</time>
      </trkpt>
      <trkpt lat="45.879928" lon="8.628497">
        <ele>255.766052</ele>
        <time>2022-06-05T16:47:23.364Z</time>
      </trkpt>
      <trkpt lat="45.880054" lon="8.628459">
        <ele>255.781870</ele>
        <time>2022-06-05T16:47:26.557Z</time>
      </trkpt>
      <trkpt lat="45.880697" lon="8.628013">
        <ele>255.869596</ele>
        <time>2022-06-05T16:47:42.000Z</time>
      </trkpt>
      <trkpt lat="45.880963" lon="8.627922">
        <ele>255.903190</ele>
        <time>2022-06-05T16:47:47.243Z</time>
      </trkpt>
      <trkpt lat="45.881160" lon="8.627902">
        <ele>255.875634</ele>
        <time>2022-06-05T16:47:50.855Z</time>
      </trkpt>
      <trkpt lat="45.882530" lon="8.627766">
        <ele>255.191452</ele>
        <time>2022-06-05T16:48:17.327Z</time>
      </trkpt>
      <trkpt lat="45.882922" lon="8.627758">
        <ele>255.265523</ele>
        <time>2022-06-05T16:48:27.493Z</time>
      </trkpt>
      <trkpt lat="45.883119" lon="8.627790">
        <ele>256.232812</ele>
        <time>2022-06-05T16:48:33.042Z</time>
      </trkpt>
      <trkpt lat="45.883283" lon="8.627860">
        <ele>257.067541</ele>
        <time>2022-06-05T16:48:38.083Z</time>
      </trkpt>
      <trkpt lat="45.885513" lon="8.629353">
        <ele>268.283112</ele>
        <time>2022-06-05T16:50:05.664Z</time>
      </trkpt>
      <trkpt lat="45.886437" lon="8.630010">
        <ele>270.592243</ele>
        <time>2022-06-05T16:50:33.202Z</time>
      </trkpt>
      <trkpt lat="45.887642" lon="8.630866">
        <ele>267.724301</ele>
        <time>2022-06-05T16:50:56.912Z</time>
      </trkpt>
      <trkpt lat="45.887910" lon="8.631062">
        <ele>266.348345</ele>
        <time>2022-06-05T16:51:01.732Z</time>
      </trkpt>
      <trkpt lat="45.887900" lon="8.630985">
        <ele>265.981431</ele>
        <time>2022-06-05T16:51:03.270Z</time>
      </trkpt>
      <trkpt lat="45.887910" lon="8.631062">
        <ele>265.614517</ele>
        <time>2022-06-05T16:51:04.902Z</time>
      </trkpt>
      <trkpt lat="45.888001" lon="8.631129">
        <ele>264.926379</ele>
        <time>2022-06-05T16:51:06.506Z</time>
      </trkpt>
      <trkpt lat="45.888340" lon="8.631372">
        <ele>262.376818</ele>
        <time>2022-06-05T16:51:12.348Z</time>
      </trkpt>
      <trkpt lat="45.889244" lon="8.631994">
        <ele>255.631495</ele>
        <time>2022-06-05T16:51:27.232Z</time>
      </trkpt>
      <trkpt lat="45.889389" lon="8.632088">
        <ele>254.573320</ele>
        <time>2022-06-05T16:51:29.585Z</time>
      </trkpt>
      <trkpt lat="45.889513" lon="8.632160">
        <ele>253.687944</ele>
        <time>2022-06-05T16:51:31.576Z</time>
      </trkpt>
      <trkpt lat="45.889973" lon="8.632546">
        <ele>250.161420</ele>
        <time>2022-06-05T16:51:39.530Z</time>
      </trkpt>
      <trkpt lat="45.889996" lon="8.632569">
        <ele>249.975911</ele>
        <time>2022-06-05T16:51:39.950Z</time>
      </trkpt>
      <trkpt lat="45.890087" lon="8.632580">
        <ele>249.371370</ele>
        <time>2022-06-05T16:51:41.349Z</time>
      </trkpt>
      <trkpt lat="45.890167" lon="8.632679">
        <ele>248.672405</ele>
        <time>2022-06-05T16:51:42.945Z</time>
      </trkpt>
      <trkpt lat="45.890282" lon="8.632846">
        <ele>247.589968</ele>
        <time>2022-06-05T16:51:45.449Z</time>
      </trkpt>
      <trkpt lat="45.890446" lon="8.633161">
        <ele>245.777431</ele>
        <time>2022-06-05T16:51:49.697Z</time>
      </trkpt>
      <trkpt lat="45.891007" lon="8.633919">
        <ele>241.661297</ele>
        <time>2022-06-05T16:52:02.054Z</time>
      </trkpt>
      <trkpt lat="45.890989" lon="8.634066">
        <ele>241.220658</ele>
        <time>2022-06-05T16:52:04.476Z</time>
      </trkpt>
      <trkpt lat="45.891193" lon="8.634333">
        <ele>240.050183</ele>
        <time>2022-06-05T16:52:10.952Z</time>
      </trkpt>
      <trkpt lat="45.891305" lon="8.634311">
        <ele>239.570713</ele>
        <time>2022-06-05T16:52:13.680Z</time>
      </trkpt>
      <trkpt lat="45.891331" lon="8.634339">
        <ele>239.432892</ele>
        <time>2022-06-05T16:52:14.234Z</time>
      </trkpt>
      <trkpt lat="45.892052" lon="8.635255">
        <ele>235.233045</ele>
        <time>2022-06-05T16:52:30.314Z</time>
      </trkpt>
      <trkpt lat="45.892328" lon="8.635676">
        <ele>233.061829</ele>
        <time>2022-06-05T16:52:36.667Z</time>
      </trkpt>
      <trkpt lat="45.893055" lon="8.636636">
        <ele>227.735939</ele>
        <time>2022-06-05T16:52:52.020Z</time>
      </trkpt>
      <trkpt lat="45.893333" lon="8.636944">
        <ele>225.942915</ele>
        <time>2022-06-05T16:52:57.521Z</time>
      </trkpt>
      <trkpt lat="45.893592" lon="8.637071">
        <ele>225.086161</ele>
        <time>2022-06-05T16:53:01.860Z</time>
      </trkpt>
      <trkpt lat="45.893884" lon="8.637043">
        <ele>224.169981</ele>
        <time>2022-06-05T16:53:06.640Z</time>
      </trkpt>
      <trkpt lat="45.894305" lon="8.637063">
        <ele>222.851262</ele>
        <time>2022-06-05T16:53:13.821Z</time>
      </trkpt>
      <trkpt lat="45.894849" lon="8.637244">
        <ele>221.103129</ele>
        <time>2022-06-05T16:53:24.259Z</time>
      </trkpt>
      <trkpt lat="45.895382" lon="8.637125">
        <ele>220.367993</ele>
        <time>2022-06-05T16:53:35.591Z</time>
      </trkpt>
      <trkpt lat="45.895400" lon="8.637224">
        <ele>220.350136</ele>
        <time>2022-06-05T16:53:37.142Z</time>
      </trkpt>
      <trkpt lat="45.895481" lon="8.637285">
        <ele>220.327204</ele>
        <time>2022-06-05T16:53:39.115Z</time>
      </trkpt>
      <trkpt lat="45.895494" lon="8.637390">
        <ele>220.308593</ele>
        <time>2022-06-05T16:53:40.721Z</time>
      </trkpt>
      <trkpt lat="45.895546" lon="8.637484">
        <ele>220.287638</ele>
        <time>2022-06-05T16:53:42.528Z</time>
      </trkpt>
      <trkpt lat="45.895536" lon="8.637711">
        <ele>220.247944</ele>
        <time>2022-06-05T16:53:45.965Z</time>
      </trkpt>
      <trkpt lat="45.895302" lon="8.639188">
        <ele>220.000146</ele>
        <time>2022-06-05T16:54:08.912Z</time>
      </trkpt>
      <trkpt lat="45.895195" lon="8.639598">
        <ele>220.000798</ele>
        <time>2022-06-05T16:54:15.550Z</time>
      </trkpt>
      <trkpt lat="45.894812" lon="8.640773">
        <ele>220.002731</ele>
        <time>2022-06-05T16:54:35.231Z</time>
      </trkpt>
      <trkpt lat="45.894737" lon="8.641000">
        <ele>220.003105</ele>
        <time>2022-06-05T16:54:39.036Z</time>
      </trkpt>
      <trkpt lat="45.894695" lon="8.641122">
        <ele>220.003308</ele>
        <time>2022-06-05T16:54:41.103Z</time>
      </trkpt>
      <trkpt lat="45.894385" lon="8.642067">
        <ele>220.096243</ele>
        <time>2022-06-05T16:54:56.988Z</time>
      </trkpt>
      <trkpt lat="45.894356" lon="8.642357">
        <ele>220.136215</ele>
        <time>2022-06-05T16:55:01.491Z</time>
      </trkpt>
      <trkpt lat="45.894436" lon="8.643393">
        <ele>220.278428</ele>
        <time>2022-06-05T16:55:17.772Z</time>
      </trkpt>
      <trkpt lat="45.894459" lon="8.643856">
        <ele>220.341757</ele>
        <time>2022-06-05T16:55:25.183Z</time>
      </trkpt>
      <trkpt lat="45.894444" lon="8.644265">
        <ele>220.519499</ele>
        <time>2022-06-05T16:55:31.818Z</time>
      </trkpt>
      <trkpt lat="45.894410" lon="8.645146">
        <ele>220.996018</ele>
        <time>2022-06-05T16:55:46.317Z</time>
      </trkpt>
      <trkpt lat="45.894407" lon="8.645232">
        <ele>221.042521</ele>
        <time>2022-06-05T16:55:47.745Z</time>
      </trkpt>
      <trkpt lat="45.894183" lon="8.648667">
        <ele>223.295204</ele>
        <time>2022-06-05T16:56:47.202Z</time>
      </trkpt>
      <trkpt lat="45.894116" lon="8.649694">
        <ele>224.047096</ele>
        <time>2022-06-05T16:57:05.063Z</time>
      </trkpt>
      <trkpt lat="45.894141" lon="8.650250">
        <ele>224.456029</ele>
        <time>2022-06-05T16:57:14.810Z</time>
      </trkpt>
      <trkpt lat="45.894071" lon="8.650312">
        <ele>224.542748</ele>
        <time>2022-06-05T16:57:16.908Z</time>
      </trkpt>
      <trkpt lat="45.894048" lon="8.650457">
        <ele>224.651901</ele>
        <time>2022-06-05T16:57:19.540Z</time>
      </trkpt>
      <trkpt lat="45.894072" lon="8.650527">
        <ele>224.709174</ele>
        <time>2022-06-05T16:57:20.928Z</time>
      </trkpt>
      <trkpt lat="45.894154" lon="8.650591">
        <ele>224.807583</ele>
        <time>2022-06-05T16:57:23.302Z</time>
      </trkpt>
      <trkpt lat="45.894172" lon="8.650894">
        <ele>225.030782</ele>
        <time>2022-06-05T16:57:28.775Z</time>
      </trkpt>
      <trkpt lat="45.894245" lon="8.651062">
        <ele>225.176145</ele>
        <time>2022-06-05T16:57:32.165Z</time>
      </trkpt>
      <trkpt lat="45.894340" lon="8.651179">
        <ele>225.308096</ele>
        <time>2022-06-05T16:57:35.261Z</time>
      </trkpt>
      <trkpt lat="45.894541" lon="8.651348">
        <ele>225.519100</ele>
        <time>2022-06-05T16:57:40.787Z</time>
      </trkpt>
      <trkpt lat="45.894584" lon="8.651374">
        <ele>225.523432</ele>
        <time>2022-06-05T16:57:41.895Z</time>
      </trkpt>
      <trkpt lat="45.894766" lon="8.651483">
        <ele>225.541743</ele>
        <time>2022-06-05T16:57:46.450Z</time>
      </trkpt>
      <trkpt lat="45.895052" lon="8.651665">
        <ele>225.570791</ele>
        <time>2022-06-05T16:57:53.383Z</time>
      </trkpt>
      <trkpt lat="45.895415" lon="8.651805">
        <ele>225.605694</ele>
        <time>2022-06-05T16:58:01.574Z</time>
      </trkpt>
      <trkpt lat="45.895083" lon="8.651613">
        <ele>225.638928</ele>
        <time>2022-06-05T16:58:09.309Z</time>
      </trkpt>
      <trkpt lat="45.894743" lon="8.651366">
        <ele>225.674308</ele>
        <time>2022-06-05T16:58:17.499Z</time>
      </trkpt>
      <trkpt lat="45.894563" lon="8.651234">
        <ele>225.717444</ele>
        <time>2022-06-05T16:58:21.800Z</time>
      </trkpt>
      <trkpt lat="45.894734" lon="8.650333">
        <ele>225.920812</ele>
        <time>2022-06-05T16:58:35.690Z</time>
      </trkpt>
      <trkpt lat="45.894805" lon="8.649742">
        <ele>226.051413</ele>
        <time>2022-06-05T16:58:44.911Z</time>
      </trkpt>
      <trkpt lat="45.894900" lon="8.649330">
        <ele>226.145926</ele>
        <time>2022-06-05T16:58:52.263Z</time>
      </trkpt>
      <trkpt lat="45.895042" lon="8.649052">
        <ele>226.221018</ele>
        <time>2022-06-05T16:58:58.302Z</time>
      </trkpt>
      <trkpt lat="45.895170" lon="8.648920">
        <ele>226.317271</ele>
        <time>2022-06-05T16:59:02.317Z</time>
      </trkpt>
      <trkpt lat="45.895312" lon="8.648828">
        <ele>226.458457</ele>
        <time>2022-06-05T16:59:06.251Z</time>
      </trkpt>
      <trkpt lat="45.895535" lon="8.648812">
        <ele>226.660831</ele>
        <time>2022-06-05T16:59:11.896Z</time>
      </trkpt>
      <trkpt lat="45.895951" lon="8.648547">
        <ele>227.073279</ele>
        <time>2022-06-05T16:59:23.315Z</time>
      </trkpt>
      <trkpt lat="45.896187" lon="8.648279">
        <ele>227.345924</ele>
        <time>2022-06-05T16:59:30.857Z</time>
      </trkpt>
      <trkpt lat="45.896347" lon="8.647961">
        <ele>227.593451</ele>
        <time>2022-06-05T16:59:37.571Z</time>
      </trkpt>
      <trkpt lat="45.896445" lon="8.647828">
        <ele>227.715633</ele>
        <time>2022-06-05T16:59:40.884Z</time>
      </trkpt>
      <trkpt lat="45.896508" lon="8.647626">
        <ele>227.855265</ele>
        <time>2022-06-05T16:59:44.531Z</time>
      </trkpt>
      <trkpt lat="45.896720" lon="8.647170">
        <ele>227.351649</ele>
        <time>2022-06-05T16:59:58.133Z</time>
      </trkpt>
      <trkpt lat="45.896832" lon="8.646982">
        <ele>227.100170</ele>
        <time>2022-06-05T17:00:04.293Z</time>
      </trkpt>
      <trkpt lat="45.897098" lon="8.646866">
        <ele>226.694279</ele>
        <time>2022-06-05T17:00:13.858Z</time>
      </trkpt>
      <trkpt lat="45.897571" lon="8.646494">
        <ele>225.906948</ele>
        <time>2022-06-05T17:00:31.326Z</time>
      </trkpt>
      <trkpt lat="45.897717" lon="8.646300">
        <ele>225.616588</ele>
        <time>2022-06-05T17:00:37.621Z</time>
      </trkpt>
      <trkpt lat="45.897832" lon="8.645990">
        <ele>225.259616</ele>
        <time>2022-06-05T17:00:45.387Z</time>
      </trkpt>
      <trkpt lat="45.897825" lon="8.645777">
        <ele>224.929425</ele>
        <time>2022-06-05T17:00:50.112Z</time>
      </trkpt>
      <trkpt lat="45.897933" lon="8.645293">
        <ele>224.129195</ele>
        <time>2022-06-05T17:01:01.356Z</time>
      </trkpt>
      <trkpt lat="45.897874" lon="8.644751">
        <ele>223.265484</ele>
        <time>2022-06-05T17:01:13.528Z</time>
      </trkpt>
      <trkpt lat="45.897921" lon="8.644573">
        <ele>222.965745</ele>
        <time>2022-06-05T17:01:17.770Z</time>
      </trkpt>
      <trkpt lat="45.897922" lon="8.644569">
        <ele>222.959053</ele>
        <time>2022-06-05T17:01:17.874Z</time>
      </trkpt>
      <trkpt lat="45.898015" lon="8.644391">
        <ele>222.608620</ele>
        <time>2022-06-05T17:01:22.838Z</time>
      </trkpt>
      <trkpt lat="45.898333" lon="8.644450">
        <ele>221.883239</ele>
        <time>2022-06-05T17:01:28.672Z</time>
      </trkpt>
      <trkpt lat="45.898655" lon="8.644348">
        <ele>221.179193</ele>
        <time>2022-06-05T17:01:34.898Z</time>
      </trkpt>
      <trkpt lat="45.898772" lon="8.644217">
        <ele>221.169167</ele>
        <time>2022-06-05T17:01:37.818Z</time>
      </trkpt>
      <trkpt lat="45.898913" lon="8.643488">
        <ele>221.133573</ele>
        <time>2022-06-05T17:01:48.754Z</time>
      </trkpt>
      <trkpt lat="45.899036" lon="8.643064">
        <ele>221.111964</ele>
        <time>2022-06-05T17:01:55.776Z</time>
      </trkpt>
      <trkpt lat="45.899256" lon="8.642608">
        <ele>221.085861</ele>
        <time>2022-06-05T17:02:04.728Z</time>
      </trkpt>
      <trkpt lat="45.899502" lon="8.642173">
        <ele>221.059494</ele>
        <time>2022-06-05T17:02:14.241Z</time>
      </trkpt>
      <trkpt lat="45.899738" lon="8.642099">
        <ele>221.393765</ele>
        <time>2022-06-05T17:02:20.358Z</time>
      </trkpt>
      <trkpt lat="45.900088" lon="8.641471">
        <ele>222.199190</ele>
        <time>2022-06-05T17:02:35.004Z</time>
      </trkpt>
      <trkpt lat="45.900275" lon="8.640957">
        <ele>222.779808</ele>
        <time>2022-06-05T17:02:45.783Z</time>
      </trkpt>
      <trkpt lat="45.900670" lon="8.639724">
        <ele>223.563839</ele>
        <time>2022-06-05T17:03:09.761Z</time>
      </trkpt>
      <trkpt lat="45.900888" lon="8.638907">
        <ele>223.417262</ele>
        <time>2022-06-05T17:03:23.181Z</time>
      </trkpt>
      <trkpt lat="45.900973" lon="8.638394">
        <ele>223.328924</ele>
        <time>2022-06-05T17:03:30.825Z</time>
      </trkpt>
      <trkpt lat="45.900993" lon="8.638291">
        <ele>223.311011</ele>
        <time>2022-06-05T17:03:32.312Z</time>
      </trkpt>
      <trkpt lat="45.901096" lon="8.637681">
        <ele>223.167653</ele>
        <time>2022-06-05T17:03:40.836Z</time>
      </trkpt>
      <trkpt lat="45.901181" lon="8.637320">
        <ele>222.774485</ele>
        <time>2022-06-05T17:03:45.865Z</time>
      </trkpt>
      <trkpt lat="45.901196" lon="8.637152">
        <ele>222.599747</ele>
        <time>2022-06-05T17:03:48.045Z</time>
      </trkpt>
      <trkpt lat="45.901136" lon="8.636923">
        <ele>222.347308</ele>
        <time>2022-06-05T17:03:51.262Z</time>
      </trkpt>
      <trkpt lat="45.900854" lon="8.636353">
        <ele>221.625804</ele>
        <time>2022-06-05T17:04:00.270Z</time>
      </trkpt>
      <trkpt lat="45.900587" lon="8.635960">
        <ele>221.059183</ele>
        <time>2022-06-05T17:04:07.622Z</time>
      </trkpt>
      <trkpt lat="45.900396" lon="8.635599">
        <ele>220.591336</ele>
        <time>2022-06-05T17:04:14.027Z</time>
      </trkpt>
      <trkpt lat="45.900350" lon="8.635203">
        <ele>220.547398</ele>
        <time>2022-06-05T17:04:19.867Z</time>
      </trkpt>
      <trkpt lat="45.900479" lon="8.634895">
        <ele>220.547979</ele>
        <time>2022-06-05T17:04:25.200Z</time>
      </trkpt>
      <trkpt lat="45.900737" lon="8.634112">
        <ele>220.549378</ele>
        <time>2022-06-05T17:04:38.430Z</time>
      </trkpt>
      <trkpt lat="45.900901" lon="8.633791">
        <ele>220.550021</ele>
        <time>2022-06-05T17:04:44.792Z</time>
      </trkpt>
      <trkpt lat="45.901050" lon="8.633588">
        <ele>220.550497</ele>
        <time>2022-06-05T17:04:49.603Z</time>
      </trkpt>
      <trkpt lat="45.901481" lon="8.633135">
        <ele>220.723484</ele>
        <time>2022-06-05T17:05:02.234Z</time>
      </trkpt>
      <trkpt lat="45.902321" lon="8.631391">
        <ele>221.518579</ele>
        <time>2022-06-05T17:05:37.586Z</time>
      </trkpt>
      <trkpt lat="45.902850" lon="8.630578">
        <ele>221.408607</ele>
        <time>2022-06-05T17:05:54.376Z</time>
      </trkpt>
      <trkpt lat="45.902943" lon="8.630385">
        <ele>221.385057</ele>
        <time>2022-06-05T17:05:57.842Z</time>
      </trkpt>
      <trkpt lat="45.902999" lon="8.630036">
        <ele>221.349127</ele>
        <time>2022-06-05T17:06:03.106Z</time>
      </trkpt>
      <trkpt lat="45.902980" lon="8.629805">
        <ele>221.325793</ele>
        <time>2022-06-05T17:06:06.513Z</time>
      </trkpt>
      <trkpt lat="45.902898" lon="8.629634">
        <ele>221.304960</ele>
        <time>2022-06-05T17:06:09.566Z</time>
      </trkpt>
      <trkpt lat="45.902514" lon="8.629382">
        <ele>221.298532</ele>
        <time>2022-06-05T17:06:18.367Z</time>
      </trkpt>
      <trkpt lat="45.902301" lon="8.629012">
        <ele>221.409138</ele>
        <time>2022-06-05T17:06:25.859Z</time>
      </trkpt>
      <trkpt lat="45.902253" lon="8.628818">
        <ele>221.456563</ele>
        <time>2022-06-05T17:06:29.214Z</time>
      </trkpt>
      <trkpt lat="45.902170" lon="8.628651">
        <ele>221.503832</ele>
        <time>2022-06-05T17:06:32.689Z</time>
      </trkpt>
      <trkpt lat="45.902176" lon="8.628536">
        <ele>221.530395</ele>
        <time>2022-06-05T17:06:34.586Z</time>
      </trkpt>
      <trkpt lat="45.902246" lon="8.628626">
        <ele>221.561485</ele>
        <time>2022-06-05T17:06:36.723Z</time>
      </trkpt>
      <trkpt lat="45.902363" lon="8.628763">
        <ele>221.611440</ele>
        <time>2022-06-05T17:06:40.495Z</time>
      </trkpt>
      <trkpt lat="45.902527" lon="8.629015">
        <ele>221.690912</ele>
        <time>2022-06-05T17:06:46.069Z</time>
      </trkpt>
      <trkpt lat="45.902814" lon="8.629203">
        <ele>221.795312</ele>
        <time>2022-06-05T17:06:53.337Z</time>
      </trkpt>
      <trkpt lat="45.902959" lon="8.629240">
        <ele>221.844057</ele>
        <time>2022-06-05T17:06:56.772Z</time>
      </trkpt>
      <trkpt lat="45.903055" lon="8.629264">
        <ele>221.951868</ele>
        <time>2022-06-05T17:06:59.118Z</time>
      </trkpt>
      <trkpt lat="45.903313" lon="8.629242">
        <ele>222.355047</ele>
        <time>2022-06-05T17:07:05.237Z</time>
      </trkpt>
      <trkpt lat="45.903350" lon="8.629173">
        <ele>222.449608</ele>
        <time>2022-06-05T17:07:06.759Z</time>
      </trkpt>
      <trkpt lat="45.903367" lon="8.629042">
        <ele>222.594264</ele>
        <time>2022-06-05T17:07:08.987Z</time>
      </trkpt>
      <trkpt lat="45.903309" lon="8.628772">
        <ele>222.901006</ele>
        <time>2022-06-05T17:07:13.824Z</time>
      </trkpt>
      <trkpt lat="45.903343" lon="8.627983">
        <ele>223.759134</ele>
        <time>2022-06-05T17:07:27.872Z</time>
      </trkpt>
      <trkpt lat="45.903391" lon="8.627744">
        <ele>224.029166</ele>
        <time>2022-06-05T17:07:32.529Z</time>
      </trkpt>
      <trkpt lat="45.903434" lon="8.627572">
        <ele>224.227561</ele>
        <time>2022-06-05T17:07:36.073Z</time>
      </trkpt>
      <trkpt lat="45.904004" lon="8.626363">
        <ele>226.491168</ele>
        <time>2022-06-05T17:08:04.764Z</time>
      </trkpt>
      <trkpt lat="45.904262" lon="8.626082">
        <ele>227.293786</ele>
        <time>2022-06-05T17:08:13.634Z</time>
      </trkpt>
      <trkpt lat="45.904572" lon="8.625834">
        <ele>228.173439</ele>
        <time>2022-06-05T17:08:22.655Z</time>
      </trkpt>
      <trkpt lat="45.904830" lon="8.625578">
        <ele>228.950763</ele>
        <time>2022-06-05T17:08:31.012Z</time>
      </trkpt>
      <trkpt lat="45.904935" lon="8.625381">
        <ele>229.399501</ele>
        <time>2022-06-05T17:08:35.998Z</time>
      </trkpt>
      <trkpt lat="45.905019" lon="8.624813">
        <ele>230.481491</ele>
        <time>2022-06-05T17:08:48.358Z</time>
      </trkpt>
      <trkpt lat="45.905061" lon="8.624487">
        <ele>231.099248</ele>
        <time>2022-06-05T17:08:55.454Z</time>
      </trkpt>
      <trkpt lat="45.905028" lon="8.623957">
        <ele>232.090739</ele>
        <time>2022-06-05T17:09:06.990Z</time>
      </trkpt>
      <trkpt lat="45.905213" lon="8.623921">
        <ele>232.590639</ele>
        <time>2022-06-05T17:09:12.588Z</time>
      </trkpt>
      <trkpt lat="45.905409" lon="8.623838">
        <ele>233.137784</ele>
        <time>2022-06-05T17:09:18.190Z</time>
      </trkpt>
      <trkpt lat="45.905777" lon="8.623603">
        <ele>233.687777</ele>
        <time>2022-06-05T17:09:27.606Z</time>
      </trkpt>
      <trkpt lat="45.906084" lon="8.623329">
        <ele>232.820713</ele>
        <time>2022-06-05T17:09:35.336Z</time>
      </trkpt>
      <trkpt lat="45.906341" lon="8.622977">
        <ele>231.968916</ele>
        <time>2022-06-05T17:09:42.854Z</time>
      </trkpt>
      <trkpt lat="45.906575" lon="8.622559">
        <ele>231.073264</ele>
        <time>2022-06-05T17:09:50.512Z</time>
      </trkpt>
      <trkpt lat="45.906927" lon="8.621591">
        <ele>228.058035</ele>
        <time>2022-06-05T17:10:02.483Z</time>
      </trkpt>
      <trkpt lat="45.907049" lon="8.621172">
        <ele>224.871562</ele>
        <time>2022-06-05T17:10:07.051Z</time>
      </trkpt>
      <trkpt lat="45.907058" lon="8.621035">
        <ele>223.906167</ele>
        <time>2022-06-05T17:10:08.397Z</time>
      </trkpt>
      <trkpt lat="45.907133" lon="8.620722">
        <ele>221.583769</ele>
        <time>2022-06-05T17:10:11.639Z</time>
      </trkpt>
      <trkpt lat="45.907398" lon="8.619751">
        <ele>214.266526</ele>
        <time>2022-06-05T17:10:21.765Z</time>
      </trkpt>
      <trkpt lat="45.907875" lon="8.618593">
        <ele>211.487613</ele>
        <time>2022-06-05T17:10:35.258Z</time>
      </trkpt>
      <trkpt lat="45.907943" lon="8.618429">
        <ele>211.487613</ele>
        <time>2022-06-05T17:10:37.349Z</time>
      </trkpt>
      <trkpt lat="45.908152" lon="8.617921">
        <ele>211.487613</ele>
        <time>2022-06-05T17:10:44.373Z</time>
      </trkpt>
      <trkpt lat="45.908185" lon="8.617860">
        <ele>211.487613</ele>
        <time>2022-06-05T17:10:45.344Z</time>
      </trkpt>
      <trkpt lat="45.908238" lon="8.617828">
        <ele>211.487613</ele>
        <time>2022-06-05T17:10:46.490Z</time>
      </trkpt>
      <trkpt lat="45.908292" lon="8.617833">
        <ele>211.487613</ele>
        <time>2022-06-05T17:10:47.532Z</time>
      </trkpt>
      <trkpt lat="45.908597" lon="8.618089">
        <ele>211.487613</ele>
        <time>2022-06-05T17:10:54.775Z</time>
      </trkpt>
      <trkpt lat="45.908703" lon="8.618247">
        <ele>211.487613</ele>
        <time>2022-06-05T17:10:58.263Z</time>
      </trkpt>
      <trkpt lat="45.908712" lon="8.618734">
        <ele>211.487613</ele>
        <time>2022-06-05T17:11:06.855Z</time>
      </trkpt>
      <trkpt lat="45.908690" lon="8.618786">
        <ele>211.487613</ele>
        <time>2022-06-05T17:11:07.945Z</time>
      </trkpt>
      <trkpt lat="45.908629" lon="8.618814">
        <ele>211.487613</ele>
        <time>2022-06-05T17:11:09.560Z</time>
      </trkpt>
      <trkpt lat="45.908608" lon="8.618875">
        <ele>211.487613</ele>
        <time>2022-06-05T17:11:10.950Z</time>
      </trkpt>
      <trkpt lat="45.908620" lon="8.618942">
        <ele>211.487613</ele>
        <time>2022-06-05T17:11:12.353Z</time>
      </trkpt>
      <trkpt lat="45.908589" lon="8.619011">
        <ele>211.487613</ele>
        <time>2022-06-05T17:11:14.033Z</time>
      </trkpt>
      <trkpt lat="45.908563" lon="8.619072">
        <ele>211.487613</ele>
        <time>2022-06-05T17:11:15.548Z</time>
      </trkpt>
    </trkseg>
  </trk>
</gpx>